<?xml version="1.0" encoding="UTF-8" standalone="no" ?>
<gpx xmlns="http://www.topografix.com/GPX/1/1" xmlns:xsi="http://www.w3.org/2001/XMLSchema-instance" xsi:schemaLocation="http://www.topografix.com/GPX/1/1 http://www.topografix.com/GPX/1/1/gpx.xsd" version="1.1" creator="VisuGPX - https://www.visugpx.com">
  <metadata>
    <name>Seul 24 août 22 Bois prince, cazier, mme gralex</name>
  </metadata>
  <trk>
    <name><![CDATA[Seul 24 août 22 Bois prince, cazier, mme gralex_1]]></name>
    <extensions>
      <line xmlns="http://www.topografix.com/GPX/gpx_style/0/2">
        <color>0000FF</color>
        <width>4</width>
      </line>
    </extensions>
    <trkseg>
      <trkpt lat="50.39903" lon="4.42651">
        <ele>115.4</ele>
        <time>2022-08-24T12:10:47Z</time>
      </trkpt>
      <trkpt lat="50.39904" lon="4.42651">
        <ele>115</ele>
        <time>2022-08-24T12:11:30Z</time>
      </trkpt>
      <trkpt lat="50.39909" lon="4.42652">
        <ele>115.2</ele>
        <time>2022-08-24T12:11:39Z</time>
      </trkpt>
      <trkpt lat="50.39911" lon="4.42655">
        <ele>115.2</ele>
        <time>2022-08-24T12:11:40Z</time>
      </trkpt>
      <trkpt lat="50.39909" lon="4.42679">
        <ele>114.8</ele>
        <time>2022-08-24T12:11:45Z</time>
      </trkpt>
      <trkpt lat="50.39898" lon="4.42687">
        <ele>115</ele>
        <time>2022-08-24T12:11:48Z</time>
      </trkpt>
      <trkpt lat="50.39872" lon="4.42693">
        <ele>115.4</ele>
        <time>2022-08-24T12:11:53Z</time>
      </trkpt>
      <trkpt lat="50.39839" lon="4.42697">
        <ele>115.6</ele>
        <time>2022-08-24T12:11:59Z</time>
      </trkpt>
      <trkpt lat="50.39803" lon="4.42702">
        <ele>116</ele>
        <time>2022-08-24T12:12:05Z</time>
      </trkpt>
      <trkpt lat="50.39764" lon="4.42714">
        <ele>116.6</ele>
        <time>2022-08-24T12:12:12Z</time>
      </trkpt>
      <trkpt lat="50.39723" lon="4.42725">
        <ele>117.8</ele>
        <time>2022-08-24T12:12:20Z</time>
      </trkpt>
      <trkpt lat="50.39708" lon="4.42726">
        <ele>118.4</ele>
        <time>2022-08-24T12:12:23Z</time>
      </trkpt>
      <trkpt lat="50.39668" lon="4.42735">
        <ele>119.4</ele>
        <time>2022-08-24T12:12:31Z</time>
      </trkpt>
      <trkpt lat="50.39658" lon="4.42739">
        <ele>119.6</ele>
        <time>2022-08-24T12:12:33Z</time>
      </trkpt>
      <trkpt lat="50.39596" lon="4.42752">
        <ele>122</ele>
        <time>2022-08-24T12:12:45Z</time>
      </trkpt>
      <trkpt lat="50.39542" lon="4.42769">
        <ele>124</ele>
        <time>2022-08-24T12:12:57Z</time>
      </trkpt>
      <trkpt lat="50.39523" lon="4.42774">
        <ele>125</ele>
        <time>2022-08-24T12:13:01Z</time>
      </trkpt>
      <trkpt lat="50.39515" lon="4.42782">
        <ele>125.4</ele>
        <time>2022-08-24T12:13:03Z</time>
      </trkpt>
      <trkpt lat="50.39503" lon="4.42809">
        <ele>125.8</ele>
        <time>2022-08-24T12:13:07Z</time>
      </trkpt>
      <trkpt lat="50.39471" lon="4.42892">
        <ele>127.6</ele>
        <time>2022-08-24T12:13:20Z</time>
      </trkpt>
      <trkpt lat="50.39454" lon="4.4288">
        <ele>128.6</ele>
        <time>2022-08-24T12:13:27Z</time>
      </trkpt>
      <trkpt lat="50.39448" lon="4.42876">
        <ele>133.2</ele>
        <time>2022-08-24T12:14:15Z</time>
      </trkpt>
      <trkpt lat="50.39447" lon="4.42875">
        <ele>133.2</ele>
        <time>2022-08-24T12:14:16Z</time>
      </trkpt>
      <trkpt lat="50.39427" lon="4.42859">
        <ele>133.6</ele>
        <time>2022-08-24T12:14:24Z</time>
      </trkpt>
      <trkpt lat="50.39391" lon="4.42823">
        <ele>134.2</ele>
        <time>2022-08-24T12:14:36Z</time>
      </trkpt>
      <trkpt lat="50.3936" lon="4.42787">
        <ele>134.8</ele>
        <time>2022-08-24T12:14:46Z</time>
      </trkpt>
      <trkpt lat="50.39328" lon="4.4275">
        <ele>135.4</ele>
        <time>2022-08-24T12:14:55Z</time>
      </trkpt>
      <trkpt lat="50.3931" lon="4.42726">
        <ele>135.8</ele>
        <time>2022-08-24T12:15:01Z</time>
      </trkpt>
      <trkpt lat="50.39276" lon="4.42683">
        <ele>136.8</ele>
        <time>2022-08-24T12:15:12Z</time>
      </trkpt>
      <trkpt lat="50.39243" lon="4.42642">
        <ele>137.8</ele>
        <time>2022-08-24T12:15:23Z</time>
      </trkpt>
      <trkpt lat="50.39228" lon="4.42622">
        <ele>138.4</ele>
        <time>2022-08-24T12:15:28Z</time>
      </trkpt>
      <trkpt lat="50.3921" lon="4.42599">
        <ele>139</ele>
        <time>2022-08-24T12:15:34Z</time>
      </trkpt>
      <trkpt lat="50.39182" lon="4.42564">
        <ele>140.6</ele>
        <time>2022-08-24T12:15:44Z</time>
      </trkpt>
      <trkpt lat="50.39171" lon="4.42537">
        <ele>141.6</ele>
        <time>2022-08-24T12:15:50Z</time>
      </trkpt>
      <trkpt lat="50.39175" lon="4.42506">
        <ele>142.6</ele>
        <time>2022-08-24T12:15:56Z</time>
      </trkpt>
      <trkpt lat="50.39174" lon="4.42484">
        <ele>143.4</ele>
        <time>2022-08-24T12:16:00Z</time>
      </trkpt>
      <trkpt lat="50.39168" lon="4.42471">
        <ele>144</ele>
        <time>2022-08-24T12:16:03Z</time>
      </trkpt>
      <trkpt lat="50.39154" lon="4.42458">
        <ele>144.4</ele>
        <time>2022-08-24T12:16:07Z</time>
      </trkpt>
      <trkpt lat="50.39138" lon="4.42431">
        <ele>144.8</ele>
        <time>2022-08-24T12:16:12Z</time>
      </trkpt>
      <trkpt lat="50.39152" lon="4.42396">
        <ele>145.2</ele>
        <time>2022-08-24T12:16:18Z</time>
      </trkpt>
      <trkpt lat="50.39157" lon="4.42384">
        <ele>145.2</ele>
        <time>2022-08-24T12:16:20Z</time>
      </trkpt>
      <trkpt lat="50.39171" lon="4.42357">
        <ele>145.6</ele>
        <time>2022-08-24T12:16:25Z</time>
      </trkpt>
      <trkpt lat="50.39181" lon="4.42329">
        <ele>146</ele>
        <time>2022-08-24T12:16:31Z</time>
      </trkpt>
      <trkpt lat="50.39175" lon="4.42317">
        <ele>146.2</ele>
        <time>2022-08-24T12:16:34Z</time>
      </trkpt>
      <trkpt lat="50.3917" lon="4.42319">
        <ele>146.4</ele>
        <time>2022-08-24T12:16:37Z</time>
      </trkpt>
      <trkpt lat="50.39163" lon="4.4233">
        <ele>146.4</ele>
        <time>2022-08-24T12:16:41Z</time>
      </trkpt>
      <trkpt lat="50.39127" lon="4.42392">
        <ele>147</ele>
        <time>2022-08-24T12:16:55Z</time>
      </trkpt>
      <trkpt lat="50.39101" lon="4.42398">
        <ele>147.4</ele>
        <time>2022-08-24T12:17:04Z</time>
      </trkpt>
      <trkpt lat="50.39063" lon="4.4239">
        <ele>147.8</ele>
        <time>2022-08-24T12:17:15Z</time>
      </trkpt>
      <trkpt lat="50.39035" lon="4.42361">
        <ele>148.4</ele>
        <time>2022-08-24T12:17:25Z</time>
      </trkpt>
      <trkpt lat="50.39022" lon="4.42343">
        <ele>148.8</ele>
        <time>2022-08-24T12:17:30Z</time>
      </trkpt>
      <trkpt lat="50.38996" lon="4.42308">
        <ele>149.4</ele>
        <time>2022-08-24T12:17:40Z</time>
      </trkpt>
      <trkpt lat="50.38972" lon="4.42277">
        <ele>150.4</ele>
        <time>2022-08-24T12:17:49Z</time>
      </trkpt>
      <trkpt lat="50.38959" lon="4.42262">
        <ele>150.6</ele>
        <time>2022-08-24T12:17:53Z</time>
      </trkpt>
      <trkpt lat="50.38945" lon="4.4225">
        <ele>151.2</ele>
        <time>2022-08-24T12:17:57Z</time>
      </trkpt>
      <trkpt lat="50.38934" lon="4.42226">
        <ele>151.8</ele>
        <time>2022-08-24T12:18:02Z</time>
      </trkpt>
      <trkpt lat="50.38939" lon="4.42176">
        <ele>152.8</ele>
        <time>2022-08-24T12:18:10Z</time>
      </trkpt>
      <trkpt lat="50.38946" lon="4.42134">
        <ele>153.8</ele>
        <time>2022-08-24T12:18:17Z</time>
      </trkpt>
      <trkpt lat="50.38941" lon="4.42117">
        <ele>154.2</ele>
        <time>2022-08-24T12:18:20Z</time>
      </trkpt>
      <trkpt lat="50.38921" lon="4.42081">
        <ele>155.2</ele>
        <time>2022-08-24T12:18:28Z</time>
      </trkpt>
      <trkpt lat="50.38881" lon="4.42014">
        <ele>157.8</ele>
        <time>2022-08-24T12:18:46Z</time>
      </trkpt>
      <trkpt lat="50.38857" lon="4.41973">
        <ele>159.2</ele>
        <time>2022-08-24T12:18:58Z</time>
      </trkpt>
      <trkpt lat="50.38834" lon="4.41934">
        <ele>160.4</ele>
        <time>2022-08-24T12:19:09Z</time>
      </trkpt>
      <trkpt lat="50.38823" lon="4.41944">
        <ele>161</ele>
        <time>2022-08-24T12:19:14Z</time>
      </trkpt>
      <trkpt lat="50.3881" lon="4.41954">
        <ele>161.4</ele>
        <time>2022-08-24T12:19:18Z</time>
      </trkpt>
      <trkpt lat="50.38768" lon="4.41996">
        <ele>161.6</ele>
        <time>2022-08-24T12:19:32Z</time>
      </trkpt>
      <trkpt lat="50.38743" lon="4.4198">
        <ele>161.6</ele>
        <time>2022-08-24T12:19:40Z</time>
      </trkpt>
      <trkpt lat="50.38706" lon="4.41928">
        <ele>162.2</ele>
        <time>2022-08-24T12:19:52Z</time>
      </trkpt>
      <trkpt lat="50.38689" lon="4.41897">
        <ele>162.4</ele>
        <time>2022-08-24T12:19:58Z</time>
      </trkpt>
      <trkpt lat="50.38666" lon="4.41846">
        <ele>162.2</ele>
        <time>2022-08-24T12:20:08Z</time>
      </trkpt>
      <trkpt lat="50.38637" lon="4.41807">
        <ele>162</ele>
        <time>2022-08-24T12:20:17Z</time>
      </trkpt>
      <trkpt lat="50.38598" lon="4.41778">
        <ele>161.8</ele>
        <time>2022-08-24T12:20:28Z</time>
      </trkpt>
      <trkpt lat="50.3858" lon="4.41764">
        <ele>161.8</ele>
        <time>2022-08-24T12:20:32Z</time>
      </trkpt>
      <trkpt lat="50.38546" lon="4.41721">
        <ele>162.8</ele>
        <time>2022-08-24T12:20:40Z</time>
      </trkpt>
      <trkpt lat="50.38524" lon="4.41692">
        <ele>162.8</ele>
        <time>2022-08-24T12:20:46Z</time>
      </trkpt>
      <trkpt lat="50.38481" lon="4.41634">
        <ele>163.6</ele>
        <time>2022-08-24T12:20:58Z</time>
      </trkpt>
      <trkpt lat="50.38434" lon="4.41583">
        <ele>164.6</ele>
        <time>2022-08-24T12:21:10Z</time>
      </trkpt>
      <trkpt lat="50.38369" lon="4.41537">
        <ele>165.2</ele>
        <time>2022-08-24T12:21:25Z</time>
      </trkpt>
      <trkpt lat="50.38338" lon="4.41516">
        <ele>165.8</ele>
        <time>2022-08-24T12:21:33Z</time>
      </trkpt>
      <trkpt lat="50.38288" lon="4.41473">
        <ele>166</ele>
        <time>2022-08-24T12:21:46Z</time>
      </trkpt>
      <trkpt lat="50.38261" lon="4.41441">
        <ele>166.6</ele>
        <time>2022-08-24T12:21:54Z</time>
      </trkpt>
      <trkpt lat="50.38218" lon="4.41362">
        <ele>167.4</ele>
        <time>2022-08-24T12:22:09Z</time>
      </trkpt>
      <trkpt lat="50.38215" lon="4.41356">
        <ele>167.4</ele>
        <time>2022-08-24T12:22:10Z</time>
      </trkpt>
      <trkpt lat="50.38206" lon="4.41333">
        <ele>167.8</ele>
        <time>2022-08-24T12:22:14Z</time>
      </trkpt>
      <trkpt lat="50.3819" lon="4.41284">
        <ele>169</ele>
        <time>2022-08-24T12:22:24Z</time>
      </trkpt>
      <trkpt lat="50.38186" lon="4.41256">
        <ele>169.2</ele>
        <time>2022-08-24T12:22:30Z</time>
      </trkpt>
      <trkpt lat="50.38204" lon="4.41246">
        <ele>169.2</ele>
        <time>2022-08-24T12:22:37Z</time>
      </trkpt>
      <trkpt lat="50.38225" lon="4.41237">
        <ele>169.2</ele>
        <time>2022-08-24T12:22:43Z</time>
      </trkpt>
      <trkpt lat="50.3823" lon="4.41241">
        <ele>169.4</ele>
        <time>2022-08-24T12:22:46Z</time>
      </trkpt>
      <trkpt lat="50.38227" lon="4.4125">
        <ele>169.8</ele>
        <time>2022-08-24T12:22:50Z</time>
      </trkpt>
      <trkpt lat="50.38206" lon="4.4126">
        <ele>170.4</ele>
        <time>2022-08-24T12:22:59Z</time>
      </trkpt>
      <trkpt lat="50.38164" lon="4.41285">
        <ele>170.8</ele>
        <time>2022-08-24T12:23:11Z</time>
      </trkpt>
      <trkpt lat="50.38133" lon="4.41301">
        <ele>171.4</ele>
        <time>2022-08-24T12:23:19Z</time>
      </trkpt>
      <trkpt lat="50.38099" lon="4.41325">
        <ele>172</ele>
        <time>2022-08-24T12:23:28Z</time>
      </trkpt>
      <trkpt lat="50.38071" lon="4.41352">
        <ele>172.2</ele>
        <time>2022-08-24T12:23:35Z</time>
      </trkpt>
      <trkpt lat="50.38059" lon="4.41373">
        <ele>172.2</ele>
        <time>2022-08-24T12:23:43Z</time>
      </trkpt>
      <trkpt lat="50.38063" lon="4.41374">
        <ele>172.2</ele>
        <time>2022-08-24T12:23:45Z</time>
      </trkpt>
      <trkpt lat="50.3808" lon="4.41361">
        <ele>171.6</ele>
        <time>2022-08-24T12:23:51Z</time>
      </trkpt>
      <trkpt lat="50.38117" lon="4.41333">
        <ele>170.6</ele>
        <time>2022-08-24T12:24:01Z</time>
      </trkpt>
      <trkpt lat="50.3813" lon="4.41342">
        <ele>170.6</ele>
        <time>2022-08-24T12:24:04Z</time>
      </trkpt>
      <trkpt lat="50.3814" lon="4.41365">
        <ele>170.6</ele>
        <time>2022-08-24T12:24:08Z</time>
      </trkpt>
      <trkpt lat="50.38151" lon="4.414">
        <ele>170.6</ele>
        <time>2022-08-24T12:24:13Z</time>
      </trkpt>
      <trkpt lat="50.38163" lon="4.41435">
        <ele>170.6</ele>
        <time>2022-08-24T12:24:18Z</time>
      </trkpt>
      <trkpt lat="50.38173" lon="4.41463">
        <ele>170.6</ele>
        <time>2022-08-24T12:24:22Z</time>
      </trkpt>
      <trkpt lat="50.38197" lon="4.41538">
        <ele>170</ele>
        <time>2022-08-24T12:24:33Z</time>
      </trkpt>
      <trkpt lat="50.38209" lon="4.41579">
        <ele>169.8</ele>
        <time>2022-08-24T12:24:39Z</time>
      </trkpt>
      <trkpt lat="50.38218" lon="4.41612">
        <ele>169.8</ele>
        <time>2022-08-24T12:24:44Z</time>
      </trkpt>
      <trkpt lat="50.38222" lon="4.41681">
        <ele>169.8</ele>
        <time>2022-08-24T12:24:54Z</time>
      </trkpt>
      <trkpt lat="50.38216" lon="4.41741">
        <ele>169.4</ele>
        <time>2022-08-24T12:25:03Z</time>
      </trkpt>
      <trkpt lat="50.38197" lon="4.41822">
        <ele>169.2</ele>
        <time>2022-08-24T12:25:14Z</time>
      </trkpt>
      <trkpt lat="50.38193" lon="4.41829">
        <ele>169.2</ele>
        <time>2022-08-24T12:25:15Z</time>
      </trkpt>
      <trkpt lat="50.38167" lon="4.41881">
        <ele>168.4</ele>
        <time>2022-08-24T12:25:23Z</time>
      </trkpt>
      <trkpt lat="50.38138" lon="4.4191">
        <ele>167.6</ele>
        <time>2022-08-24T12:25:30Z</time>
      </trkpt>
      <trkpt lat="50.38124" lon="4.41921">
        <ele>167.4</ele>
        <time>2022-08-24T12:25:33Z</time>
      </trkpt>
      <trkpt lat="50.38112" lon="4.4193">
        <ele>167.2</ele>
        <time>2022-08-24T12:25:36Z</time>
      </trkpt>
      <trkpt lat="50.38091" lon="4.41948">
        <ele>166.6</ele>
        <time>2022-08-24T12:25:41Z</time>
      </trkpt>
      <trkpt lat="50.38068" lon="4.41967">
        <ele>166.6</ele>
        <time>2022-08-24T12:25:47Z</time>
      </trkpt>
      <trkpt lat="50.38048" lon="4.41995">
        <ele>166</ele>
        <time>2022-08-24T12:25:55Z</time>
      </trkpt>
      <trkpt lat="50.38022" lon="4.42013">
        <ele>165.8</ele>
        <time>2022-08-24T12:26:02Z</time>
      </trkpt>
      <trkpt lat="50.38013" lon="4.4202">
        <ele>165.6</ele>
        <time>2022-08-24T12:26:04Z</time>
      </trkpt>
      <trkpt lat="50.37977" lon="4.42048">
        <ele>165</ele>
        <time>2022-08-24T12:26:12Z</time>
      </trkpt>
      <trkpt lat="50.37942" lon="4.42076">
        <ele>164</ele>
        <time>2022-08-24T12:26:20Z</time>
      </trkpt>
      <trkpt lat="50.37907" lon="4.42106">
        <ele>163.4</ele>
        <time>2022-08-24T12:26:28Z</time>
      </trkpt>
      <trkpt lat="50.37887" lon="4.42125">
        <ele>163.2</ele>
        <time>2022-08-24T12:26:33Z</time>
      </trkpt>
      <trkpt lat="50.37883" lon="4.4213">
        <ele>163.2</ele>
        <time>2022-08-24T12:26:34Z</time>
      </trkpt>
      <trkpt lat="50.37863" lon="4.42152">
        <ele>162.6</ele>
        <time>2022-08-24T12:26:40Z</time>
      </trkpt>
      <trkpt lat="50.37851" lon="4.42166">
        <ele>162.6</ele>
        <time>2022-08-24T12:26:45Z</time>
      </trkpt>
      <trkpt lat="50.37848" lon="4.42179">
        <ele>162</ele>
        <time>2022-08-24T12:26:57Z</time>
      </trkpt>
      <trkpt lat="50.37848" lon="4.42181">
        <ele>161.2</ele>
        <time>2022-08-24T12:27:15Z</time>
      </trkpt>
      <trkpt lat="50.37849" lon="4.42189">
        <ele>161</ele>
        <time>2022-08-24T12:27:18Z</time>
      </trkpt>
      <trkpt lat="50.37858" lon="4.42206">
        <ele>160.6</ele>
        <time>2022-08-24T12:27:29Z</time>
      </trkpt>
      <trkpt lat="50.37867" lon="4.42226">
        <ele>160.6</ele>
        <time>2022-08-24T12:27:42Z</time>
      </trkpt>
      <trkpt lat="50.37874" lon="4.42233">
        <ele>160.6</ele>
        <time>2022-08-24T12:27:56Z</time>
      </trkpt>
      <trkpt lat="50.37877" lon="4.4225">
        <ele>160.4</ele>
        <time>2022-08-24T12:28:04Z</time>
      </trkpt>
      <trkpt lat="50.37883" lon="4.42262">
        <ele>160</ele>
        <time>2022-08-24T12:28:12Z</time>
      </trkpt>
      <trkpt lat="50.37876" lon="4.42277">
        <ele>160</ele>
        <time>2022-08-24T12:28:19Z</time>
      </trkpt>
      <trkpt lat="50.3788" lon="4.4229">
        <ele>159.2</ele>
        <time>2022-08-24T12:28:28Z</time>
      </trkpt>
      <trkpt lat="50.37884" lon="4.42295">
        <ele>159</ele>
        <time>2022-08-24T12:28:37Z</time>
      </trkpt>
      <trkpt lat="50.37892" lon="4.42306">
        <ele>158.6</ele>
        <time>2022-08-24T12:28:40Z</time>
      </trkpt>
      <trkpt lat="50.37905" lon="4.42336">
        <ele>158.8</ele>
        <time>2022-08-24T12:28:46Z</time>
      </trkpt>
      <trkpt lat="50.37931" lon="4.42381">
        <ele>158.4</ele>
        <time>2022-08-24T12:28:53Z</time>
      </trkpt>
      <trkpt lat="50.37953" lon="4.42418">
        <ele>159.2</ele>
        <time>2022-08-24T12:28:59Z</time>
      </trkpt>
      <trkpt lat="50.3799" lon="4.4249">
        <ele>158.8</ele>
        <time>2022-08-24T12:29:10Z</time>
      </trkpt>
      <trkpt lat="50.37992" lon="4.42507">
        <ele>158.6</ele>
        <time>2022-08-24T12:29:12Z</time>
      </trkpt>
      <trkpt lat="50.37987" lon="4.42523">
        <ele>158.6</ele>
        <time>2022-08-24T12:29:14Z</time>
      </trkpt>
      <trkpt lat="50.37937" lon="4.42574">
        <ele>157.6</ele>
        <time>2022-08-24T12:29:23Z</time>
      </trkpt>
      <trkpt lat="50.37868" lon="4.42643">
        <ele>156.4</ele>
        <time>2022-08-24T12:29:34Z</time>
      </trkpt>
      <trkpt lat="50.37829" lon="4.42684">
        <ele>155.8</ele>
        <time>2022-08-24T12:29:41Z</time>
      </trkpt>
      <trkpt lat="50.3776" lon="4.4276">
        <ele>155</ele>
        <time>2022-08-24T12:29:54Z</time>
      </trkpt>
      <trkpt lat="50.37715" lon="4.42819">
        <ele>154.6</ele>
        <time>2022-08-24T12:30:03Z</time>
      </trkpt>
      <trkpt lat="50.37718" lon="4.42831">
        <ele>153</ele>
        <time>2022-08-24T12:30:05Z</time>
      </trkpt>
      <trkpt lat="50.3775" lon="4.4289">
        <ele>152</ele>
        <time>2022-08-24T12:30:13Z</time>
      </trkpt>
      <trkpt lat="50.37754" lon="4.42897">
        <ele>152</ele>
      </trkpt>
      <trkpt lat="50.37758" lon="4.42905">
        <ele>151.8</ele>
        <time>2022-08-24T12:30:15Z</time>
      </trkpt>
      <trkpt lat="50.37792" lon="4.42967">
        <ele>150.6</ele>
      </trkpt>
      <trkpt lat="50.37814" lon="4.43006">
        <ele>149.8</ele>
        <time>2022-08-24T12:30:28Z</time>
      </trkpt>
      <trkpt lat="50.37835" lon="4.43041">
        <ele>149</ele>
      </trkpt>
      <trkpt lat="50.37856" lon="4.43078">
        <ele>148.8</ele>
        <time>2022-08-24T12:30:38Z</time>
      </trkpt>
      <trkpt lat="50.37883" lon="4.43122">
        <ele>148.6</ele>
      </trkpt>
      <trkpt lat="50.37914" lon="4.43175">
        <ele>148.6</ele>
        <time>2022-08-24T12:30:52Z</time>
      </trkpt>
      <trkpt lat="50.37933" lon="4.43206">
        <ele>147.8</ele>
      </trkpt>
      <trkpt lat="50.37952" lon="4.4324">
        <ele>147.3</ele>
        <time>2022-08-24T12:31:02Z</time>
      </trkpt>
      <trkpt lat="50.37967" lon="4.43261">
        <ele>146.7</ele>
      </trkpt>
      <trkpt lat="50.3798" lon="4.43285">
        <ele>145.9</ele>
        <time>2022-08-24T12:31:09Z</time>
      </trkpt>
      <trkpt lat="50.38003" lon="4.43321">
        <ele>144.9</ele>
      </trkpt>
      <trkpt lat="50.38025" lon="4.4336">
        <ele>143.1</ele>
        <time>2022-08-24T12:31:21Z</time>
      </trkpt>
      <trkpt lat="50.38034" lon="4.43368">
        <ele>148</ele>
        <time>2022-08-24T12:31:24Z</time>
      </trkpt>
      <trkpt lat="50.38053" lon="4.43369">
        <ele>147.4</ele>
        <time>2022-08-24T12:31:29Z</time>
      </trkpt>
      <trkpt lat="50.38086" lon="4.43381">
        <ele>146.8</ele>
        <time>2022-08-24T12:31:35Z</time>
      </trkpt>
      <trkpt lat="50.38132" lon="4.43407">
        <ele>145.8</ele>
        <time>2022-08-24T12:31:43Z</time>
      </trkpt>
      <trkpt lat="50.38142" lon="4.43432">
        <ele>145.4</ele>
        <time>2022-08-24T12:31:46Z</time>
      </trkpt>
      <trkpt lat="50.38148" lon="4.43458">
        <ele>145</ele>
        <time>2022-08-24T12:31:49Z</time>
      </trkpt>
      <trkpt lat="50.38155" lon="4.43462">
        <ele>144.6</ele>
        <time>2022-08-24T12:31:51Z</time>
      </trkpt>
      <trkpt lat="50.38165" lon="4.43463">
        <ele>144.4</ele>
        <time>2022-08-24T12:31:53Z</time>
      </trkpt>
      <trkpt lat="50.38256" lon="4.43495">
        <ele>142.8</ele>
        <time>2022-08-24T12:32:07Z</time>
      </trkpt>
      <trkpt lat="50.38268" lon="4.43513">
        <ele>142.4</ele>
        <time>2022-08-24T12:32:10Z</time>
      </trkpt>
      <trkpt lat="50.38276" lon="4.43513">
        <ele>142</ele>
        <time>2022-08-24T12:32:12Z</time>
      </trkpt>
      <trkpt lat="50.3828" lon="4.43509">
        <ele>141.8</ele>
        <time>2022-08-24T12:32:13Z</time>
      </trkpt>
      <trkpt lat="50.38319" lon="4.43462">
        <ele>140.2</ele>
        <time>2022-08-24T12:32:21Z</time>
      </trkpt>
      <trkpt lat="50.38333" lon="4.43451">
        <ele>139.8</ele>
        <time>2022-08-24T12:32:24Z</time>
      </trkpt>
      <trkpt lat="50.38375" lon="4.43403">
        <ele>139</ele>
        <time>2022-08-24T12:32:34Z</time>
      </trkpt>
      <trkpt lat="50.38425" lon="4.43349">
        <ele>139.2</ele>
        <time>2022-08-24T12:32:47Z</time>
      </trkpt>
      <trkpt lat="50.38436" lon="4.4334">
        <ele>139.2</ele>
        <time>2022-08-24T12:32:50Z</time>
      </trkpt>
      <trkpt lat="50.38472" lon="4.43302">
        <ele>139.6</ele>
        <time>2022-08-24T12:33:00Z</time>
      </trkpt>
      <trkpt lat="50.38489" lon="4.43293">
        <ele>139.6</ele>
        <time>2022-08-24T12:33:04Z</time>
      </trkpt>
      <trkpt lat="50.38506" lon="4.4329">
        <ele>139.4</ele>
        <time>2022-08-24T12:33:08Z</time>
      </trkpt>
      <trkpt lat="50.38546" lon="4.433">
        <ele>139.4</ele>
        <time>2022-08-24T12:33:17Z</time>
      </trkpt>
      <trkpt lat="50.38555" lon="4.43305">
        <ele>139.2</ele>
        <time>2022-08-24T12:33:19Z</time>
      </trkpt>
      <trkpt lat="50.38587" lon="4.43337">
        <ele>139</ele>
        <time>2022-08-24T12:33:26Z</time>
      </trkpt>
      <trkpt lat="50.38601" lon="4.43368">
        <ele>139</ele>
        <time>2022-08-24T12:33:30Z</time>
      </trkpt>
      <trkpt lat="50.38604" lon="4.43407">
        <ele>139.2</ele>
        <time>2022-08-24T12:33:34Z</time>
      </trkpt>
      <trkpt lat="50.38599" lon="4.43457">
        <ele>139</ele>
        <time>2022-08-24T12:33:39Z</time>
      </trkpt>
      <trkpt lat="50.38582" lon="4.43491">
        <ele>138.6</ele>
        <time>2022-08-24T12:33:43Z</time>
      </trkpt>
      <trkpt lat="50.38525" lon="4.43589">
        <ele>137</ele>
        <time>2022-08-24T12:33:55Z</time>
      </trkpt>
      <trkpt lat="50.38522" lon="4.43616">
        <ele>136.6</ele>
        <time>2022-08-24T12:33:58Z</time>
      </trkpt>
      <trkpt lat="50.38533" lon="4.43638">
        <ele>136.2</ele>
        <time>2022-08-24T12:34:01Z</time>
      </trkpt>
      <trkpt lat="50.38557" lon="4.43689">
        <ele>135.6</ele>
        <time>2022-08-24T12:34:08Z</time>
      </trkpt>
      <trkpt lat="50.38598" lon="4.43765">
        <ele>134.8</ele>
        <time>2022-08-24T12:34:18Z</time>
      </trkpt>
      <trkpt lat="50.38618" lon="4.4381">
        <ele>134.4</ele>
        <time>2022-08-24T12:34:26Z</time>
      </trkpt>
      <trkpt lat="50.38615" lon="4.4383">
        <ele>134</ele>
        <time>2022-08-24T12:34:30Z</time>
      </trkpt>
      <trkpt lat="50.38604" lon="4.43861">
        <ele>133.6</ele>
        <time>2022-08-24T12:34:35Z</time>
      </trkpt>
      <trkpt lat="50.38591" lon="4.4389">
        <ele>133</ele>
        <time>2022-08-24T12:34:41Z</time>
      </trkpt>
      <trkpt lat="50.38577" lon="4.43947">
        <ele>131</ele>
        <time>2022-08-24T12:34:54Z</time>
      </trkpt>
      <trkpt lat="50.38562" lon="4.44003">
        <ele>129.6</ele>
        <time>2022-08-24T12:35:07Z</time>
      </trkpt>
      <trkpt lat="50.38549" lon="4.44052">
        <ele>128.2</ele>
        <time>2022-08-24T12:35:18Z</time>
      </trkpt>
      <trkpt lat="50.38541" lon="4.44081">
        <ele>127.6</ele>
        <time>2022-08-24T12:35:25Z</time>
      </trkpt>
      <trkpt lat="50.38533" lon="4.44105">
        <ele>127.2</ele>
        <time>2022-08-24T12:35:31Z</time>
      </trkpt>
      <trkpt lat="50.38518" lon="4.44173">
        <ele>126.2</ele>
        <time>2022-08-24T12:35:39Z</time>
      </trkpt>
      <trkpt lat="50.38485" lon="4.44293">
        <ele>124.6</ele>
        <time>2022-08-24T12:35:52Z</time>
      </trkpt>
      <trkpt lat="50.38448" lon="4.44419">
        <ele>123.8</ele>
        <time>2022-08-24T12:36:08Z</time>
      </trkpt>
      <trkpt lat="50.3843" lon="4.44471">
        <ele>123.8</ele>
        <time>2022-08-24T12:36:16Z</time>
      </trkpt>
      <trkpt lat="50.38403" lon="4.4455">
        <ele>124.4</ele>
        <time>2022-08-24T12:36:30Z</time>
      </trkpt>
      <trkpt lat="50.38373" lon="4.44654">
        <ele>126.4</ele>
        <time>2022-08-24T12:36:47Z</time>
      </trkpt>
      <trkpt lat="50.38358" lon="4.44726">
        <ele>128</ele>
        <time>2022-08-24T12:37:00Z</time>
      </trkpt>
      <trkpt lat="50.38348" lon="4.44729">
        <ele>128.4</ele>
        <time>2022-08-24T12:37:03Z</time>
      </trkpt>
      <trkpt lat="50.38327" lon="4.44725">
        <ele>129.4</ele>
        <time>2022-08-24T12:37:09Z</time>
      </trkpt>
      <trkpt lat="50.38317" lon="4.44733">
        <ele>129.8</ele>
        <time>2022-08-24T12:37:13Z</time>
      </trkpt>
      <trkpt lat="50.38323" lon="4.4475">
        <ele>130.2</ele>
        <time>2022-08-24T12:37:16Z</time>
      </trkpt>
      <trkpt lat="50.38336" lon="4.4476">
        <ele>130.4</ele>
        <time>2022-08-24T12:37:19Z</time>
      </trkpt>
      <trkpt lat="50.38346" lon="4.44769">
        <ele>130.8</ele>
        <time>2022-08-24T12:37:22Z</time>
      </trkpt>
      <trkpt lat="50.38346" lon="4.44789">
        <ele>131.2</ele>
        <time>2022-08-24T12:37:27Z</time>
      </trkpt>
      <trkpt lat="50.38343" lon="4.44844">
        <ele>131.2</ele>
        <time>2022-08-24T12:37:38Z</time>
      </trkpt>
      <trkpt lat="50.38339" lon="4.44885">
        <ele>130</ele>
        <time>2022-08-24T12:37:46Z</time>
      </trkpt>
      <trkpt lat="50.38338" lon="4.44912">
        <ele>128.6</ele>
        <time>2022-08-24T12:37:51Z</time>
      </trkpt>
      <trkpt lat="50.38335" lon="4.44929">
        <ele>127.8</ele>
        <time>2022-08-24T12:37:55Z</time>
      </trkpt>
      <trkpt lat="50.38346" lon="4.44973">
        <ele>126</ele>
        <time>2022-08-24T12:38:04Z</time>
      </trkpt>
      <trkpt lat="50.38372" lon="4.45017">
        <ele>122.8</ele>
        <time>2022-08-24T12:38:14Z</time>
      </trkpt>
      <trkpt lat="50.38386" lon="4.4509">
        <ele>122</ele>
        <time>2022-08-24T12:38:26Z</time>
      </trkpt>
      <trkpt lat="50.38388" lon="4.45101">
        <ele>122.6</ele>
        <time>2022-08-24T12:38:29Z</time>
      </trkpt>
      <trkpt lat="50.38384" lon="4.45114">
        <ele>121.6</ele>
        <time>2022-08-24T12:38:32Z</time>
      </trkpt>
      <trkpt lat="50.38366" lon="4.45135">
        <ele>124</ele>
        <time>2022-08-24T12:38:39Z</time>
      </trkpt>
      <trkpt lat="50.38358" lon="4.45169">
        <ele>124.4</ele>
        <time>2022-08-24T12:38:44Z</time>
      </trkpt>
      <trkpt lat="50.38355" lon="4.45198">
        <ele>124.4</ele>
        <time>2022-08-24T12:38:48Z</time>
      </trkpt>
      <trkpt lat="50.38349" lon="4.45232">
        <ele>125</ele>
        <time>2022-08-24T12:38:53Z</time>
      </trkpt>
      <trkpt lat="50.38343" lon="4.45274">
        <ele>126.2</ele>
        <time>2022-08-24T12:38:59Z</time>
      </trkpt>
      <trkpt lat="50.38336" lon="4.45316">
        <ele>127.4</ele>
        <time>2022-08-24T12:39:07Z</time>
      </trkpt>
      <trkpt lat="50.38327" lon="4.45316">
        <ele>127.8</ele>
        <time>2022-08-24T12:39:10Z</time>
      </trkpt>
      <trkpt lat="50.38288" lon="4.453">
        <ele>128.6</ele>
        <time>2022-08-24T12:39:18Z</time>
      </trkpt>
      <trkpt lat="50.3826" lon="4.45292">
        <ele>129.4</ele>
        <time>2022-08-24T12:39:23Z</time>
      </trkpt>
      <trkpt lat="50.38183" lon="4.45302">
        <ele>131.4</ele>
        <time>2022-08-24T12:39:37Z</time>
      </trkpt>
      <trkpt lat="50.38172" lon="4.45304">
        <ele>131.6</ele>
        <time>2022-08-24T12:39:39Z</time>
      </trkpt>
      <trkpt lat="50.3815" lon="4.45307">
        <ele>132.2</ele>
        <time>2022-08-24T12:39:43Z</time>
      </trkpt>
      <trkpt lat="50.38128" lon="4.4531">
        <ele>133</ele>
        <time>2022-08-24T12:39:47Z</time>
      </trkpt>
      <trkpt lat="50.38084" lon="4.45315">
        <ele>134.8</ele>
        <time>2022-08-24T12:39:55Z</time>
      </trkpt>
      <trkpt lat="50.38013" lon="4.45305">
        <ele>137.4</ele>
        <time>2022-08-24T12:40:07Z</time>
      </trkpt>
      <trkpt lat="50.37985" lon="4.453">
        <ele>138.4</ele>
        <time>2022-08-24T12:40:12Z</time>
      </trkpt>
      <trkpt lat="50.37912" lon="4.45278">
        <ele>140.6</ele>
        <time>2022-08-24T12:40:25Z</time>
      </trkpt>
      <trkpt lat="50.37869" lon="4.4526">
        <ele>142</ele>
        <time>2022-08-24T12:40:33Z</time>
      </trkpt>
      <trkpt lat="50.37801" lon="4.45224">
        <ele>143.8</ele>
        <time>2022-08-24T12:40:46Z</time>
      </trkpt>
      <trkpt lat="50.37777" lon="4.45214">
        <ele>144.6</ele>
        <time>2022-08-24T12:40:51Z</time>
      </trkpt>
      <trkpt lat="50.37735" lon="4.45219">
        <ele>145.6</ele>
        <time>2022-08-24T12:41:00Z</time>
      </trkpt>
      <trkpt lat="50.37705" lon="4.45244">
        <ele>146.8</ele>
        <time>2022-08-24T12:41:09Z</time>
      </trkpt>
      <trkpt lat="50.37685" lon="4.45277">
        <ele>147.4</ele>
        <time>2022-08-24T12:41:16Z</time>
      </trkpt>
      <trkpt lat="50.37667" lon="4.45324">
        <ele>148.2</ele>
        <time>2022-08-24T12:41:25Z</time>
      </trkpt>
      <trkpt lat="50.37659" lon="4.45326">
        <ele>148.6</ele>
        <time>2022-08-24T12:41:27Z</time>
      </trkpt>
      <trkpt lat="50.37608" lon="4.4531">
        <ele>150.6</ele>
        <time>2022-08-24T12:41:38Z</time>
      </trkpt>
      <trkpt lat="50.37595" lon="4.45307">
        <ele>151.2</ele>
        <time>2022-08-24T12:41:43Z</time>
      </trkpt>
      <trkpt lat="50.37588" lon="4.45306">
        <ele>156</ele>
        <time>2022-08-24T12:42:37Z</time>
      </trkpt>
      <trkpt lat="50.37563" lon="4.4531">
        <ele>157.2</ele>
        <time>2022-08-24T12:42:46Z</time>
      </trkpt>
      <trkpt lat="50.3754" lon="4.45314">
        <ele>157.6</ele>
        <time>2022-08-24T12:42:52Z</time>
      </trkpt>
      <trkpt lat="50.37508" lon="4.45325">
        <ele>159.2</ele>
        <time>2022-08-24T12:43:00Z</time>
      </trkpt>
      <trkpt lat="50.37497" lon="4.45333">
        <ele>160.4</ele>
        <time>2022-08-24T12:43:04Z</time>
      </trkpt>
      <trkpt lat="50.3747" lon="4.45349">
        <ele>162.2</ele>
        <time>2022-08-24T12:43:12Z</time>
      </trkpt>
      <trkpt lat="50.37436" lon="4.45353">
        <ele>164.2</ele>
        <time>2022-08-24T12:43:21Z</time>
      </trkpt>
      <trkpt lat="50.37402" lon="4.45371">
        <ele>166.8</ele>
        <time>2022-08-24T12:43:31Z</time>
      </trkpt>
      <trkpt lat="50.37376" lon="4.45403">
        <ele>169.2</ele>
        <time>2022-08-24T12:43:42Z</time>
      </trkpt>
      <trkpt lat="50.37373" lon="4.45411">
        <ele>169.6</ele>
        <time>2022-08-24T12:43:44Z</time>
      </trkpt>
      <trkpt lat="50.37357" lon="4.45443">
        <ele>170.8</ele>
        <time>2022-08-24T12:43:51Z</time>
      </trkpt>
      <trkpt lat="50.37336" lon="4.45471">
        <ele>171.2</ele>
        <time>2022-08-24T12:43:56Z</time>
      </trkpt>
      <trkpt lat="50.37322" lon="4.45511">
        <ele>171</ele>
        <time>2022-08-24T12:44:02Z</time>
      </trkpt>
      <trkpt lat="50.37321" lon="4.45523">
        <ele>171</ele>
        <time>2022-08-24T12:44:04Z</time>
      </trkpt>
      <trkpt lat="50.37327" lon="4.45538">
        <ele>171</ele>
        <time>2022-08-24T12:44:07Z</time>
      </trkpt>
      <trkpt lat="50.37342" lon="4.45588">
        <ele>171.2</ele>
        <time>2022-08-24T12:44:17Z</time>
      </trkpt>
      <trkpt lat="50.37355" lon="4.4566">
        <ele>169.8</ele>
        <time>2022-08-24T12:44:25Z</time>
      </trkpt>
      <trkpt lat="50.37365" lon="4.45707">
        <ele>169</ele>
        <time>2022-08-24T12:44:31Z</time>
      </trkpt>
      <trkpt lat="50.37363" lon="4.45719">
        <ele>169.2</ele>
        <time>2022-08-24T12:44:33Z</time>
      </trkpt>
      <trkpt lat="50.37355" lon="4.45728">
        <ele>169</ele>
        <time>2022-08-24T12:44:35Z</time>
      </trkpt>
      <trkpt lat="50.37322" lon="4.4575">
        <ele>169.2</ele>
        <time>2022-08-24T12:44:44Z</time>
      </trkpt>
      <trkpt lat="50.3732" lon="4.45766">
        <ele>168.2</ele>
        <time>2022-08-24T12:44:47Z</time>
      </trkpt>
      <trkpt lat="50.37317" lon="4.45787">
        <ele>168.8</ele>
        <time>2022-08-24T12:44:50Z</time>
      </trkpt>
      <trkpt lat="50.37313" lon="4.45803">
        <ele>168.4</ele>
        <time>2022-08-24T12:44:52Z</time>
      </trkpt>
      <trkpt lat="50.37296" lon="4.45855">
        <ele>168.2</ele>
        <time>2022-08-24T12:45:00Z</time>
      </trkpt>
      <trkpt lat="50.37291" lon="4.45862">
        <ele>167.8</ele>
        <time>2022-08-24T12:45:03Z</time>
      </trkpt>
      <trkpt lat="50.37279" lon="4.45864">
        <ele>167.2</ele>
        <time>2022-08-24T12:45:08Z</time>
      </trkpt>
      <trkpt lat="50.3727" lon="4.45859">
        <ele>166.8</ele>
        <time>2022-08-24T12:45:12Z</time>
      </trkpt>
      <trkpt lat="50.37261" lon="4.45858">
        <ele>166.4</ele>
        <time>2022-08-24T12:45:16Z</time>
      </trkpt>
      <trkpt lat="50.37231" lon="4.45866">
        <ele>165.8</ele>
        <time>2022-08-24T12:45:26Z</time>
      </trkpt>
      <trkpt lat="50.37201" lon="4.45872">
        <ele>164.8</ele>
        <time>2022-08-24T12:45:35Z</time>
      </trkpt>
      <trkpt lat="50.37166" lon="4.45869">
        <ele>163.4</ele>
        <time>2022-08-24T12:45:43Z</time>
      </trkpt>
      <trkpt lat="50.37161" lon="4.45868">
        <ele>163.2</ele>
        <time>2022-08-24T12:45:44Z</time>
      </trkpt>
      <trkpt lat="50.37123" lon="4.45852">
        <ele>161.8</ele>
        <time>2022-08-24T12:45:54Z</time>
      </trkpt>
      <trkpt lat="50.37076" lon="4.45828">
        <ele>161.4</ele>
        <time>2022-08-24T12:46:05Z</time>
      </trkpt>
      <trkpt lat="50.37027" lon="4.45826">
        <ele>160.6</ele>
        <time>2022-08-24T12:46:17Z</time>
      </trkpt>
      <trkpt lat="50.37007" lon="4.45839">
        <ele>159.8</ele>
        <time>2022-08-24T12:46:22Z</time>
      </trkpt>
      <trkpt lat="50.36976" lon="4.4586">
        <ele>158.4</ele>
        <time>2022-08-24T12:46:31Z</time>
      </trkpt>
      <trkpt lat="50.36952" lon="4.45861">
        <ele>157.4</ele>
        <time>2022-08-24T12:46:37Z</time>
      </trkpt>
      <trkpt lat="50.36926" lon="4.4587">
        <ele>156.6</ele>
        <time>2022-08-24T12:46:43Z</time>
      </trkpt>
      <trkpt lat="50.3689" lon="4.45877">
        <ele>155</ele>
        <time>2022-08-24T12:46:52Z</time>
      </trkpt>
      <trkpt lat="50.36869" lon="4.45884">
        <ele>154.4</ele>
        <time>2022-08-24T12:46:57Z</time>
      </trkpt>
      <trkpt lat="50.36833" lon="4.45899">
        <ele>153.4</ele>
        <time>2022-08-24T12:47:07Z</time>
      </trkpt>
      <trkpt lat="50.36824" lon="4.45906">
        <ele>153</ele>
        <time>2022-08-24T12:47:12Z</time>
      </trkpt>
      <trkpt lat="50.36818" lon="4.45914">
        <ele>152.8</ele>
        <time>2022-08-24T12:47:16Z</time>
      </trkpt>
      <trkpt lat="50.36782" lon="4.45948">
        <ele>152.2</ele>
        <time>2022-08-24T12:47:27Z</time>
      </trkpt>
      <trkpt lat="50.36759" lon="4.45951">
        <ele>152.2</ele>
        <time>2022-08-24T12:47:33Z</time>
      </trkpt>
      <trkpt lat="50.36721" lon="4.45947">
        <ele>152.2</ele>
        <time>2022-08-24T12:47:44Z</time>
      </trkpt>
      <trkpt lat="50.36689" lon="4.45951">
        <ele>153</ele>
        <time>2022-08-24T12:47:55Z</time>
      </trkpt>
      <trkpt lat="50.36656" lon="4.45963">
        <ele>153.8</ele>
        <time>2022-08-24T12:48:05Z</time>
      </trkpt>
      <trkpt lat="50.36643" lon="4.45968">
        <ele>154</ele>
        <time>2022-08-24T12:48:10Z</time>
      </trkpt>
      <trkpt lat="50.36604" lon="4.45979">
        <ele>155.4</ele>
        <time>2022-08-24T12:48:22Z</time>
      </trkpt>
      <trkpt lat="50.36562" lon="4.45977">
        <ele>156.8</ele>
        <time>2022-08-24T12:48:34Z</time>
      </trkpt>
      <trkpt lat="50.36512" lon="4.45976">
        <ele>158.2</ele>
        <time>2022-08-24T12:48:48Z</time>
      </trkpt>
      <trkpt lat="50.36492" lon="4.45977">
        <ele>158.6</ele>
        <time>2022-08-24T12:48:53Z</time>
      </trkpt>
      <trkpt lat="50.36471" lon="4.45979">
        <ele>159.2</ele>
        <time>2022-08-24T12:48:58Z</time>
      </trkpt>
      <trkpt lat="50.36449" lon="4.45977">
        <ele>159.8</ele>
        <time>2022-08-24T12:49:03Z</time>
      </trkpt>
      <trkpt lat="50.36424" lon="4.45967">
        <ele>160.6</ele>
        <time>2022-08-24T12:49:09Z</time>
      </trkpt>
      <trkpt lat="50.364" lon="4.45955">
        <ele>161.4</ele>
        <time>2022-08-24T12:49:15Z</time>
      </trkpt>
      <trkpt lat="50.36372" lon="4.45941">
        <ele>162.2</ele>
        <time>2022-08-24T12:49:22Z</time>
      </trkpt>
      <trkpt lat="50.36364" lon="4.45942">
        <ele>162.4</ele>
        <time>2022-08-24T12:49:24Z</time>
      </trkpt>
      <trkpt lat="50.36318" lon="4.45941">
        <ele>163.8</ele>
        <time>2022-08-24T12:49:36Z</time>
      </trkpt>
      <trkpt lat="50.36285" lon="4.45928">
        <ele>166.8</ele>
        <time>2022-08-24T12:49:48Z</time>
      </trkpt>
      <trkpt lat="50.36244" lon="4.45909">
        <ele>170.2</ele>
        <time>2022-08-24T12:50:00Z</time>
      </trkpt>
      <trkpt lat="50.36224" lon="4.45908">
        <ele>171.6</ele>
        <time>2022-08-24T12:50:05Z</time>
      </trkpt>
      <trkpt lat="50.36189" lon="4.4593">
        <ele>173.4</ele>
        <time>2022-08-24T12:50:15Z</time>
      </trkpt>
      <trkpt lat="50.36162" lon="4.4595">
        <ele>175</ele>
        <time>2022-08-24T12:50:23Z</time>
      </trkpt>
      <trkpt lat="50.36127" lon="4.45976">
        <ele>177</ele>
        <time>2022-08-24T12:50:34Z</time>
      </trkpt>
      <trkpt lat="50.36096" lon="4.46002">
        <ele>179.2</ele>
        <time>2022-08-24T12:50:45Z</time>
      </trkpt>
      <trkpt lat="50.36077" lon="4.46012">
        <ele>181</ele>
        <time>2022-08-24T12:50:51Z</time>
      </trkpt>
      <trkpt lat="50.36039" lon="4.46011">
        <ele>184</ele>
        <time>2022-08-24T12:51:01Z</time>
      </trkpt>
      <trkpt lat="50.36016" lon="4.4599">
        <ele>184.6</ele>
        <time>2022-08-24T12:51:08Z</time>
      </trkpt>
      <trkpt lat="50.36001" lon="4.45937">
        <ele>186.2</ele>
        <time>2022-08-24T12:51:18Z</time>
      </trkpt>
      <trkpt lat="50.35977" lon="4.45908">
        <ele>187.8</ele>
        <time>2022-08-24T12:51:27Z</time>
      </trkpt>
      <trkpt lat="50.35957" lon="4.45884">
        <ele>188.8</ele>
        <time>2022-08-24T12:51:34Z</time>
      </trkpt>
      <trkpt lat="50.35934" lon="4.4585">
        <ele>190.4</ele>
        <time>2022-08-24T12:51:43Z</time>
      </trkpt>
      <trkpt lat="50.35918" lon="4.45827">
        <ele>191.4</ele>
        <time>2022-08-24T12:51:49Z</time>
      </trkpt>
      <trkpt lat="50.35898" lon="4.45805">
        <ele>191.8</ele>
        <time>2022-08-24T12:51:56Z</time>
      </trkpt>
      <trkpt lat="50.35873" lon="4.45776">
        <ele>192.6</ele>
        <time>2022-08-24T12:52:04Z</time>
      </trkpt>
      <trkpt lat="50.35843" lon="4.45736">
        <ele>194</ele>
        <time>2022-08-24T12:52:14Z</time>
      </trkpt>
      <trkpt lat="50.35806" lon="4.45681">
        <ele>194.6</ele>
        <time>2022-08-24T12:52:27Z</time>
      </trkpt>
      <trkpt lat="50.35773" lon="4.45621">
        <ele>195</ele>
        <time>2022-08-24T12:52:41Z</time>
      </trkpt>
      <trkpt lat="50.35739" lon="4.45569">
        <ele>195.6</ele>
        <time>2022-08-24T12:52:54Z</time>
      </trkpt>
      <trkpt lat="50.35727" lon="4.45544">
        <ele>195.6</ele>
        <time>2022-08-24T12:52:59Z</time>
      </trkpt>
      <trkpt lat="50.35703" lon="4.45502">
        <ele>196</ele>
        <time>2022-08-24T12:53:08Z</time>
      </trkpt>
      <trkpt lat="50.35689" lon="4.45477">
        <ele>195.8</ele>
        <time>2022-08-24T12:53:13Z</time>
      </trkpt>
      <trkpt lat="50.35653" lon="4.45414">
        <ele>196.2</ele>
        <time>2022-08-24T12:53:27Z</time>
      </trkpt>
      <trkpt lat="50.35627" lon="4.45366">
        <ele>196</ele>
        <time>2022-08-24T12:53:37Z</time>
      </trkpt>
      <trkpt lat="50.35625" lon="4.45362">
        <ele>196.2</ele>
        <time>2022-08-24T12:53:38Z</time>
      </trkpt>
      <trkpt lat="50.35598" lon="4.45319">
        <ele>196.2</ele>
        <time>2022-08-24T12:53:47Z</time>
      </trkpt>
      <trkpt lat="50.35579" lon="4.45287">
        <ele>196.4</ele>
        <time>2022-08-24T12:53:54Z</time>
      </trkpt>
      <trkpt lat="50.35571" lon="4.45274">
        <ele>196.4</ele>
        <time>2022-08-24T12:53:57Z</time>
      </trkpt>
      <trkpt lat="50.35557" lon="4.45249">
        <ele>196.2</ele>
        <time>2022-08-24T12:54:02Z</time>
      </trkpt>
      <trkpt lat="50.35543" lon="4.45226">
        <ele>196.4</ele>
        <time>2022-08-24T12:54:07Z</time>
      </trkpt>
      <trkpt lat="50.35504" lon="4.45158">
        <ele>195.8</ele>
        <time>2022-08-24T12:54:20Z</time>
      </trkpt>
      <trkpt lat="50.3547" lon="4.45098">
        <ele>195.6</ele>
        <time>2022-08-24T12:54:32Z</time>
      </trkpt>
      <trkpt lat="50.35444" lon="4.45057">
        <ele>195.4</ele>
        <time>2022-08-24T12:54:40Z</time>
      </trkpt>
      <trkpt lat="50.35428" lon="4.45031">
        <ele>195.2</ele>
        <time>2022-08-24T12:54:46Z</time>
      </trkpt>
      <trkpt lat="50.35405" lon="4.44987">
        <ele>194.8</ele>
        <time>2022-08-24T12:54:55Z</time>
      </trkpt>
      <trkpt lat="50.35391" lon="4.44968">
        <ele>194.8</ele>
        <time>2022-08-24T12:54:59Z</time>
      </trkpt>
      <trkpt lat="50.3538" lon="4.44947">
        <ele>194.8</ele>
        <time>2022-08-24T12:55:03Z</time>
      </trkpt>
      <trkpt lat="50.3537" lon="4.44932">
        <ele>194.8</ele>
        <time>2022-08-24T12:55:06Z</time>
      </trkpt>
      <trkpt lat="50.35337" lon="4.4488">
        <ele>195.2</ele>
        <time>2022-08-24T12:55:17Z</time>
      </trkpt>
      <trkpt lat="50.35309" lon="4.4485">
        <ele>195</ele>
        <time>2022-08-24T12:55:25Z</time>
      </trkpt>
      <trkpt lat="50.3529" lon="4.44833">
        <ele>195.2</ele>
        <time>2022-08-24T12:55:30Z</time>
      </trkpt>
      <trkpt lat="50.3525" lon="4.44798">
        <ele>195.8</ele>
        <time>2022-08-24T12:55:41Z</time>
      </trkpt>
      <trkpt lat="50.35228" lon="4.44779">
        <ele>196</ele>
        <time>2022-08-24T12:55:47Z</time>
      </trkpt>
      <trkpt lat="50.35187" lon="4.44739">
        <ele>197.4</ele>
        <time>2022-08-24T12:55:59Z</time>
      </trkpt>
      <trkpt lat="50.35166" lon="4.44721">
        <ele>198</ele>
        <time>2022-08-24T12:56:04Z</time>
      </trkpt>
      <trkpt lat="50.35125" lon="4.44691">
        <ele>199.2</ele>
        <time>2022-08-24T12:56:14Z</time>
      </trkpt>
      <trkpt lat="50.35096" lon="4.44664">
        <ele>200.4</ele>
        <time>2022-08-24T12:56:22Z</time>
      </trkpt>
      <trkpt lat="50.35073" lon="4.44645">
        <ele>201.4</ele>
        <time>2022-08-24T12:56:28Z</time>
      </trkpt>
      <trkpt lat="50.35062" lon="4.44636">
        <ele>201.8</ele>
        <time>2022-08-24T12:56:31Z</time>
      </trkpt>
      <trkpt lat="50.35028" lon="4.44606">
        <ele>203.4</ele>
        <time>2022-08-24T12:56:41Z</time>
      </trkpt>
      <trkpt lat="50.34985" lon="4.44568">
        <ele>205.2</ele>
        <time>2022-08-24T12:56:54Z</time>
      </trkpt>
      <trkpt lat="50.3498" lon="4.44552">
        <ele>205.4</ele>
        <time>2022-08-24T12:56:58Z</time>
      </trkpt>
      <trkpt lat="50.34981" lon="4.44543">
        <ele>205</ele>
        <time>2022-08-24T12:57:01Z</time>
      </trkpt>
      <trkpt lat="50.34994" lon="4.44539">
        <ele>205</ele>
        <time>2022-08-24T12:57:07Z</time>
      </trkpt>
      <trkpt lat="50.35013" lon="4.4451">
        <ele>205</ele>
        <time>2022-08-24T12:57:17Z</time>
      </trkpt>
      <trkpt lat="50.35015" lon="4.44495">
        <ele>204.8</ele>
        <time>2022-08-24T12:57:21Z</time>
      </trkpt>
      <trkpt lat="50.35018" lon="4.44464">
        <ele>205</ele>
        <time>2022-08-24T12:57:27Z</time>
      </trkpt>
      <trkpt lat="50.3502" lon="4.44424">
        <ele>205</ele>
        <time>2022-08-24T12:57:35Z</time>
      </trkpt>
      <trkpt lat="50.35021" lon="4.44404">
        <ele>205</ele>
        <time>2022-08-24T12:57:41Z</time>
      </trkpt>
      <trkpt lat="50.3502" lon="4.44401">
        <ele>204.8</ele>
        <time>2022-08-24T12:57:47Z</time>
      </trkpt>
      <trkpt lat="50.35008" lon="4.44393">
        <ele>205.2</ele>
        <time>2022-08-24T12:58:05Z</time>
      </trkpt>
      <trkpt lat="50.35" lon="4.44384">
        <ele>205.2</ele>
        <time>2022-08-24T12:58:09Z</time>
      </trkpt>
      <trkpt lat="50.34973" lon="4.44364">
        <ele>205.8</ele>
        <time>2022-08-24T12:58:18Z</time>
      </trkpt>
      <trkpt lat="50.34956" lon="4.44354">
        <ele>206.6</ele>
        <time>2022-08-24T12:58:24Z</time>
      </trkpt>
      <trkpt lat="50.34934" lon="4.44342">
        <ele>207</ele>
        <time>2022-08-24T12:58:28Z</time>
      </trkpt>
      <trkpt lat="50.34923" lon="4.44335">
        <ele>207.2</ele>
        <time>2022-08-24T12:58:30Z</time>
      </trkpt>
      <trkpt lat="50.34898" lon="4.44313">
        <ele>208</ele>
        <time>2022-08-24T12:58:35Z</time>
      </trkpt>
      <trkpt lat="50.34891" lon="4.443">
        <ele>208.2</ele>
        <time>2022-08-24T12:58:37Z</time>
      </trkpt>
      <trkpt lat="50.34878" lon="4.44277">
        <ele>208.6</ele>
        <time>2022-08-24T12:58:41Z</time>
      </trkpt>
      <trkpt lat="50.34869" lon="4.44255">
        <ele>209</ele>
        <time>2022-08-24T12:58:45Z</time>
      </trkpt>
      <trkpt lat="50.3486" lon="4.44238">
        <ele>209.2</ele>
        <time>2022-08-24T12:58:49Z</time>
      </trkpt>
      <trkpt lat="50.34847" lon="4.44209">
        <ele>210</ele>
        <time>2022-08-24T12:58:55Z</time>
      </trkpt>
      <trkpt lat="50.34855" lon="4.44159">
        <ele>210.6</ele>
        <time>2022-08-24T12:59:03Z</time>
      </trkpt>
      <trkpt lat="50.34846" lon="4.44122">
        <ele>211.2</ele>
        <time>2022-08-24T12:59:09Z</time>
      </trkpt>
      <trkpt lat="50.34836" lon="4.44103">
        <ele>211.6</ele>
        <time>2022-08-24T12:59:13Z</time>
      </trkpt>
      <trkpt lat="50.34835" lon="4.44098">
        <ele>211.6</ele>
        <time>2022-08-24T12:59:14Z</time>
      </trkpt>
      <trkpt lat="50.34826" lon="4.44058">
        <ele>212.2</ele>
        <time>2022-08-24T12:59:22Z</time>
      </trkpt>
      <trkpt lat="50.34803" lon="4.44037">
        <ele>213.2</ele>
        <time>2022-08-24T12:59:29Z</time>
      </trkpt>
      <trkpt lat="50.34772" lon="4.44009">
        <ele>214.4</ele>
        <time>2022-08-24T12:59:37Z</time>
      </trkpt>
      <trkpt lat="50.3476" lon="4.43999">
        <ele>214.6</ele>
        <time>2022-08-24T12:59:40Z</time>
      </trkpt>
      <trkpt lat="50.34746" lon="4.43981">
        <ele>215</ele>
        <time>2022-08-24T12:59:44Z</time>
      </trkpt>
      <trkpt lat="50.34731" lon="4.43962">
        <ele>215.4</ele>
        <time>2022-08-24T12:59:48Z</time>
      </trkpt>
      <trkpt lat="50.34728" lon="4.4394">
        <ele>215.6</ele>
        <time>2022-08-24T12:59:51Z</time>
      </trkpt>
      <trkpt lat="50.34726" lon="4.43917">
        <ele>215.6</ele>
        <time>2022-08-24T12:59:54Z</time>
      </trkpt>
      <trkpt lat="50.34724" lon="4.4391">
        <ele>215.6</ele>
        <time>2022-08-24T12:59:55Z</time>
      </trkpt>
      <trkpt lat="50.34716" lon="4.43863">
        <ele>215.8</ele>
        <time>2022-08-24T13:00:01Z</time>
      </trkpt>
      <trkpt lat="50.34715" lon="4.43848">
        <ele>215.8</ele>
        <time>2022-08-24T13:00:03Z</time>
      </trkpt>
      <trkpt lat="50.34728" lon="4.43821">
        <ele>215.8</ele>
        <time>2022-08-24T13:00:08Z</time>
      </trkpt>
      <trkpt lat="50.34734" lon="4.4381">
        <ele>215.8</ele>
        <time>2022-08-24T13:00:10Z</time>
      </trkpt>
      <trkpt lat="50.34741" lon="4.4379">
        <ele>216.4</ele>
        <time>2022-08-24T13:00:13Z</time>
      </trkpt>
      <trkpt lat="50.34747" lon="4.43762">
        <ele>215.8</ele>
        <time>2022-08-24T13:00:17Z</time>
      </trkpt>
      <trkpt lat="50.34751" lon="4.43743">
        <ele>215.6</ele>
        <time>2022-08-24T13:00:20Z</time>
      </trkpt>
      <trkpt lat="50.34762" lon="4.43719">
        <ele>215.6</ele>
        <time>2022-08-24T13:00:24Z</time>
      </trkpt>
      <trkpt lat="50.34768" lon="4.43698">
        <ele>215.6</ele>
        <time>2022-08-24T13:00:27Z</time>
      </trkpt>
      <trkpt lat="50.34775" lon="4.43684">
        <ele>215.6</ele>
        <time>2022-08-24T13:00:30Z</time>
      </trkpt>
      <trkpt lat="50.34785" lon="4.43688">
        <ele>215.4</ele>
        <time>2022-08-24T13:00:33Z</time>
      </trkpt>
      <trkpt lat="50.34811" lon="4.43692">
        <ele>214.8</ele>
        <time>2022-08-24T13:00:39Z</time>
      </trkpt>
      <trkpt lat="50.34837" lon="4.43694">
        <ele>214.2</ele>
        <time>2022-08-24T13:00:46Z</time>
      </trkpt>
      <trkpt lat="50.34843" lon="4.43706">
        <ele>213.6</ele>
        <time>2022-08-24T13:00:50Z</time>
      </trkpt>
      <trkpt lat="50.3486" lon="4.43741">
        <ele>212</ele>
        <time>2022-08-24T13:00:58Z</time>
      </trkpt>
      <trkpt lat="50.34873" lon="4.43738">
        <ele>212.4</ele>
        <time>2022-08-24T13:01:01Z</time>
      </trkpt>
      <trkpt lat="50.3488" lon="4.4371">
        <ele>212.2</ele>
        <time>2022-08-24T13:01:05Z</time>
      </trkpt>
      <trkpt lat="50.34882" lon="4.43671">
        <ele>211.4</ele>
        <time>2022-08-24T13:01:10Z</time>
      </trkpt>
      <trkpt lat="50.34888" lon="4.43652">
        <ele>210.4</ele>
        <time>2022-08-24T13:01:13Z</time>
      </trkpt>
      <trkpt lat="50.34897" lon="4.43632">
        <ele>209.6</ele>
        <time>2022-08-24T13:01:16Z</time>
      </trkpt>
      <trkpt lat="50.34907" lon="4.43613">
        <ele>208.8</ele>
        <time>2022-08-24T13:01:19Z</time>
      </trkpt>
      <trkpt lat="50.34915" lon="4.43592">
        <ele>208</ele>
        <time>2022-08-24T13:01:22Z</time>
      </trkpt>
      <trkpt lat="50.34919" lon="4.43589">
        <ele>207.8</ele>
        <time>2022-08-24T13:01:23Z</time>
      </trkpt>
      <trkpt lat="50.34951" lon="4.43572">
        <ele>206</ele>
        <time>2022-08-24T13:01:30Z</time>
      </trkpt>
      <trkpt lat="50.3497" lon="4.43567">
        <ele>205</ele>
        <time>2022-08-24T13:01:35Z</time>
      </trkpt>
      <trkpt lat="50.34991" lon="4.43591">
        <ele>203.6</ele>
        <time>2022-08-24T13:01:42Z</time>
      </trkpt>
      <trkpt lat="50.35005" lon="4.43623">
        <ele>202.4</ele>
        <time>2022-08-24T13:01:48Z</time>
      </trkpt>
      <trkpt lat="50.35013" lon="4.43629">
        <ele>201.8</ele>
        <time>2022-08-24T13:01:50Z</time>
      </trkpt>
      <trkpt lat="50.35028" lon="4.43645">
        <ele>200.4</ele>
        <time>2022-08-24T13:01:54Z</time>
      </trkpt>
      <trkpt lat="50.3505" lon="4.43668">
        <ele>198.6</ele>
        <time>2022-08-24T13:01:59Z</time>
      </trkpt>
      <trkpt lat="50.35063" lon="4.43684">
        <ele>197.2</ele>
        <time>2022-08-24T13:02:03Z</time>
      </trkpt>
      <trkpt lat="50.35065" lon="4.4369">
        <ele>196.8</ele>
        <time>2022-08-24T13:02:04Z</time>
      </trkpt>
      <trkpt lat="50.35081" lon="4.4372">
        <ele>194.8</ele>
        <time>2022-08-24T13:02:10Z</time>
      </trkpt>
      <trkpt lat="50.35089" lon="4.43728">
        <ele>194.2</ele>
        <time>2022-08-24T13:02:12Z</time>
      </trkpt>
      <trkpt lat="50.35116" lon="4.43739">
        <ele>192.8</ele>
        <time>2022-08-24T13:02:17Z</time>
      </trkpt>
      <trkpt lat="50.3513" lon="4.43733">
        <ele>221.3</ele>
      </trkpt>
      <trkpt lat="50.35136" lon="4.43743">
        <ele>192</ele>
        <time>2022-08-24T13:02:21Z</time>
      </trkpt>
      <trkpt lat="50.35138" lon="4.43737">
        <ele>221.5</ele>
      </trkpt>
      <trkpt lat="50.35141" lon="4.43744">
        <ele>191.8</ele>
        <time>2022-08-24T13:02:22Z</time>
      </trkpt>
      <trkpt lat="50.3516" lon="4.43747">
        <ele>190.6</ele>
        <time>2022-08-24T13:02:26Z</time>
      </trkpt>
      <trkpt lat="50.35166" lon="4.43741">
        <ele>221</ele>
        <time>2022-08-24T13:02:29Z</time>
      </trkpt>
      <trkpt lat="50.35172" lon="4.43735">
        <ele>189</ele>
        <time>2022-08-24T13:02:32Z</time>
      </trkpt>
      <trkpt lat="50.35184" lon="4.43733">
        <ele>192.2</ele>
        <time>2022-08-24T13:03:36Z</time>
      </trkpt>
      <trkpt lat="50.35196" lon="4.43748">
        <ele>192.4</ele>
        <time>2022-08-24T13:03:40Z</time>
      </trkpt>
      <trkpt lat="50.35211" lon="4.43759">
        <ele>192.6</ele>
        <time>2022-08-24T13:03:44Z</time>
      </trkpt>
      <trkpt lat="50.35225" lon="4.43759">
        <ele>192.8</ele>
        <time>2022-08-24T13:03:47Z</time>
      </trkpt>
      <trkpt lat="50.3523" lon="4.43757">
        <ele>192.8</ele>
        <time>2022-08-24T13:03:48Z</time>
      </trkpt>
      <trkpt lat="50.35251" lon="4.43749">
        <ele>192.6</ele>
        <time>2022-08-24T13:03:53Z</time>
      </trkpt>
      <trkpt lat="50.35269" lon="4.43773">
        <ele>192.2</ele>
        <time>2022-08-24T13:03:58Z</time>
      </trkpt>
      <trkpt lat="50.35273" lon="4.43804">
        <ele>191.6</ele>
        <time>2022-08-24T13:04:03Z</time>
      </trkpt>
      <trkpt lat="50.35269" lon="4.43825">
        <ele>191.4</ele>
        <time>2022-08-24T13:04:07Z</time>
      </trkpt>
      <trkpt lat="50.35269" lon="4.43871">
        <ele>191.2</ele>
        <time>2022-08-24T13:04:14Z</time>
      </trkpt>
      <trkpt lat="50.35276" lon="4.43913">
        <ele>190.2</ele>
        <time>2022-08-24T13:04:21Z</time>
      </trkpt>
      <trkpt lat="50.35269" lon="4.43952">
        <ele>190.4</ele>
        <time>2022-08-24T13:04:26Z</time>
      </trkpt>
      <trkpt lat="50.35268" lon="4.43976">
        <ele>190.8</ele>
        <time>2022-08-24T13:04:29Z</time>
      </trkpt>
      <trkpt lat="50.35275" lon="4.4401">
        <ele>190.4</ele>
        <time>2022-08-24T13:04:33Z</time>
      </trkpt>
      <trkpt lat="50.35285" lon="4.44049">
        <ele>189.6</ele>
        <time>2022-08-24T13:04:38Z</time>
      </trkpt>
      <trkpt lat="50.35294" lon="4.44079">
        <ele>188.8</ele>
        <time>2022-08-24T13:04:42Z</time>
      </trkpt>
      <trkpt lat="50.35304" lon="4.44125">
        <ele>187.6</ele>
        <time>2022-08-24T13:04:49Z</time>
      </trkpt>
      <trkpt lat="50.35314" lon="4.44155">
        <ele>186.6</ele>
        <time>2022-08-24T13:04:53Z</time>
      </trkpt>
      <trkpt lat="50.35316" lon="4.44163">
        <ele>186.4</ele>
        <time>2022-08-24T13:04:54Z</time>
      </trkpt>
      <trkpt lat="50.35326" lon="4.44183">
        <ele>185.8</ele>
        <time>2022-08-24T13:04:57Z</time>
      </trkpt>
      <trkpt lat="50.35331" lon="4.44204">
        <ele>184.8</ele>
        <time>2022-08-24T13:05:00Z</time>
      </trkpt>
      <trkpt lat="50.35343" lon="4.44229">
        <ele>183</ele>
        <time>2022-08-24T13:05:04Z</time>
      </trkpt>
      <trkpt lat="50.35345" lon="4.44237">
        <ele>182.6</ele>
        <time>2022-08-24T13:05:05Z</time>
      </trkpt>
      <trkpt lat="50.35348" lon="4.44263">
        <ele>181</ele>
        <time>2022-08-24T13:05:08Z</time>
      </trkpt>
      <trkpt lat="50.35354" lon="4.44276">
        <ele>181</ele>
        <time>2022-08-24T13:05:10Z</time>
      </trkpt>
      <trkpt lat="50.35359" lon="4.44331">
        <ele>182.2</ele>
        <time>2022-08-24T13:05:17Z</time>
      </trkpt>
      <trkpt lat="50.35367" lon="4.44369">
        <ele>180.6</ele>
        <time>2022-08-24T13:05:24Z</time>
      </trkpt>
      <trkpt lat="50.3537" lon="4.44374">
        <ele>183</ele>
        <time>2022-08-24T13:05:26Z</time>
      </trkpt>
      <trkpt lat="50.35383" lon="4.44374">
        <ele>185.6</ele>
        <time>2022-08-24T13:05:32Z</time>
      </trkpt>
      <trkpt lat="50.35403" lon="4.44356">
        <ele>184</ele>
        <time>2022-08-24T13:05:38Z</time>
      </trkpt>
      <trkpt lat="50.35415" lon="4.44342">
        <ele>184.6</ele>
        <time>2022-08-24T13:05:41Z</time>
      </trkpt>
      <trkpt lat="50.35431" lon="4.44324">
        <ele>185.4</ele>
        <time>2022-08-24T13:05:45Z</time>
      </trkpt>
      <trkpt lat="50.35461" lon="4.44294">
        <ele>186.6</ele>
        <time>2022-08-24T13:05:52Z</time>
      </trkpt>
      <trkpt lat="50.35498" lon="4.44249">
        <ele>188.4</ele>
        <time>2022-08-24T13:06:02Z</time>
      </trkpt>
      <trkpt lat="50.35552" lon="4.44191">
        <ele>189.8</ele>
        <time>2022-08-24T13:06:15Z</time>
      </trkpt>
      <trkpt lat="50.35606" lon="4.44132">
        <ele>190.8</ele>
        <time>2022-08-24T13:06:26Z</time>
      </trkpt>
      <trkpt lat="50.35615" lon="4.4412">
        <ele>191</ele>
        <time>2022-08-24T13:06:28Z</time>
      </trkpt>
      <trkpt lat="50.35669" lon="4.44036">
        <ele>192.8</ele>
        <time>2022-08-24T13:06:41Z</time>
      </trkpt>
      <trkpt lat="50.35697" lon="4.43993">
        <ele>194</ele>
        <time>2022-08-24T13:06:48Z</time>
      </trkpt>
      <trkpt lat="50.35711" lon="4.43979">
        <ele>194.4</ele>
        <time>2022-08-24T13:06:51Z</time>
      </trkpt>
      <trkpt lat="50.35735" lon="4.43965">
        <ele>195</ele>
        <time>2022-08-24T13:06:55Z</time>
      </trkpt>
      <trkpt lat="50.3577" lon="4.43952">
        <ele>195.8</ele>
        <time>2022-08-24T13:07:01Z</time>
      </trkpt>
      <trkpt lat="50.35822" lon="4.43931">
        <ele>197.2</ele>
        <time>2022-08-24T13:07:10Z</time>
      </trkpt>
      <trkpt lat="50.35868" lon="4.43891">
        <ele>198.6</ele>
        <time>2022-08-24T13:07:19Z</time>
      </trkpt>
      <trkpt lat="50.359" lon="4.43854">
        <ele>199.4</ele>
        <time>2022-08-24T13:07:26Z</time>
      </trkpt>
      <trkpt lat="50.35926" lon="4.43826">
        <ele>199.8</ele>
        <time>2022-08-24T13:07:32Z</time>
      </trkpt>
      <trkpt lat="50.3596" lon="4.43789">
        <ele>200</ele>
        <time>2022-08-24T13:07:39Z</time>
      </trkpt>
      <trkpt lat="50.36009" lon="4.43735">
        <ele>200.4</ele>
        <time>2022-08-24T13:07:49Z</time>
      </trkpt>
      <trkpt lat="50.36054" lon="4.43686">
        <ele>200.2</ele>
        <time>2022-08-24T13:07:58Z</time>
      </trkpt>
      <trkpt lat="50.36086" lon="4.43642">
        <ele>200</ele>
        <time>2022-08-24T13:08:05Z</time>
      </trkpt>
      <trkpt lat="50.36094" lon="4.43628">
        <ele>200</ele>
        <time>2022-08-24T13:08:07Z</time>
      </trkpt>
      <trkpt lat="50.36136" lon="4.43536">
        <ele>199.2</ele>
        <time>2022-08-24T13:08:19Z</time>
      </trkpt>
      <trkpt lat="50.36151" lon="4.43507">
        <ele>198.6</ele>
        <time>2022-08-24T13:08:23Z</time>
      </trkpt>
      <trkpt lat="50.36181" lon="4.43439">
        <ele>197.8</ele>
        <time>2022-08-24T13:08:32Z</time>
      </trkpt>
      <trkpt lat="50.3624" lon="4.4335">
        <ele>197.6</ele>
        <time>2022-08-24T13:08:46Z</time>
      </trkpt>
      <trkpt lat="50.36286" lon="4.43296">
        <ele>198.4</ele>
        <time>2022-08-24T13:08:56Z</time>
      </trkpt>
      <trkpt lat="50.36309" lon="4.43265">
        <ele>198.6</ele>
        <time>2022-08-24T13:09:02Z</time>
      </trkpt>
      <trkpt lat="50.36322" lon="4.43228">
        <ele>199.2</ele>
        <time>2022-08-24T13:09:11Z</time>
      </trkpt>
      <trkpt lat="50.36333" lon="4.43239">
        <ele>199.4</ele>
        <time>2022-08-24T13:09:16Z</time>
      </trkpt>
      <trkpt lat="50.36337" lon="4.43243">
        <ele>199.4</ele>
        <time>2022-08-24T13:09:18Z</time>
      </trkpt>
      <trkpt lat="50.3634" lon="4.4325">
        <ele>199.8</ele>
        <time>2022-08-24T13:09:23Z</time>
      </trkpt>
      <trkpt lat="50.36345" lon="4.43252">
        <ele>199.6</ele>
        <time>2022-08-24T13:09:26Z</time>
      </trkpt>
      <trkpt lat="50.36351" lon="4.43263">
        <ele>199.6</ele>
        <time>2022-08-24T13:09:29Z</time>
      </trkpt>
      <trkpt lat="50.36367" lon="4.43289">
        <ele>199.6</ele>
        <time>2022-08-24T13:09:36Z</time>
      </trkpt>
      <trkpt lat="50.3637" lon="4.43294">
        <ele>199</ele>
        <time>2022-08-24T13:09:40Z</time>
      </trkpt>
      <trkpt lat="50.36372" lon="4.43297">
        <ele>199</ele>
        <time>2022-08-24T13:10:48Z</time>
      </trkpt>
      <trkpt lat="50.36393" lon="4.43324">
        <ele>199</ele>
        <time>2022-08-24T13:10:57Z</time>
      </trkpt>
      <trkpt lat="50.36409" lon="4.43347">
        <ele>198.6</ele>
        <time>2022-08-24T13:11:03Z</time>
      </trkpt>
      <trkpt lat="50.36447" lon="4.43403">
        <ele>198.4</ele>
        <time>2022-08-24T13:11:13Z</time>
      </trkpt>
      <trkpt lat="50.36469" lon="4.43434">
        <ele>198.4</ele>
        <time>2022-08-24T13:11:20Z</time>
      </trkpt>
      <trkpt lat="50.36523" lon="4.43513">
        <ele>198.8</ele>
        <time>2022-08-24T13:11:36Z</time>
      </trkpt>
      <trkpt lat="50.36566" lon="4.43576">
        <ele>197.8</ele>
        <time>2022-08-24T13:11:47Z</time>
      </trkpt>
      <trkpt lat="50.36623" lon="4.43659">
        <ele>196.6</ele>
        <time>2022-08-24T13:12:01Z</time>
      </trkpt>
      <trkpt lat="50.3665" lon="4.43697">
        <ele>196</ele>
        <time>2022-08-24T13:12:08Z</time>
      </trkpt>
      <trkpt lat="50.36669" lon="4.43725">
        <ele>195.4</ele>
        <time>2022-08-24T13:12:13Z</time>
      </trkpt>
      <trkpt lat="50.36691" lon="4.43754">
        <ele>194.6</ele>
        <time>2022-08-24T13:12:18Z</time>
      </trkpt>
      <trkpt lat="50.36713" lon="4.43788">
        <ele>193.6</ele>
        <time>2022-08-24T13:12:23Z</time>
      </trkpt>
      <trkpt lat="50.36759" lon="4.43857">
        <ele>191.6</ele>
        <time>2022-08-24T13:12:34Z</time>
      </trkpt>
      <trkpt lat="50.36781" lon="4.43889">
        <ele>190.8</ele>
        <time>2022-08-24T13:12:39Z</time>
      </trkpt>
      <trkpt lat="50.36827" lon="4.43956">
        <ele>188.2</ele>
        <time>2022-08-24T13:12:50Z</time>
      </trkpt>
      <trkpt lat="50.36877" lon="4.44029">
        <ele>185</ele>
        <time>2022-08-24T13:13:02Z</time>
      </trkpt>
      <trkpt lat="50.36908" lon="4.44072">
        <ele>182.8</ele>
        <time>2022-08-24T13:13:09Z</time>
      </trkpt>
      <trkpt lat="50.36921" lon="4.44088">
        <ele>181.6</ele>
        <time>2022-08-24T13:13:12Z</time>
      </trkpt>
      <trkpt lat="50.36938" lon="4.44107">
        <ele>180.2</ele>
        <time>2022-08-24T13:13:16Z</time>
      </trkpt>
      <trkpt lat="50.36987" lon="4.44142">
        <ele>176.8</ele>
        <time>2022-08-24T13:13:25Z</time>
      </trkpt>
      <trkpt lat="50.37065" lon="4.44162">
        <ele>174</ele>
        <time>2022-08-24T13:13:38Z</time>
      </trkpt>
      <trkpt lat="50.37076" lon="4.44163">
        <ele>174.2</ele>
        <time>2022-08-24T13:13:40Z</time>
      </trkpt>
      <trkpt lat="50.37088" lon="4.44167">
        <ele>174.2</ele>
        <time>2022-08-24T13:13:42Z</time>
      </trkpt>
      <trkpt lat="50.37126" lon="4.44176">
        <ele>173.2</ele>
        <time>2022-08-24T13:13:49Z</time>
      </trkpt>
      <trkpt lat="50.37154" lon="4.44191">
        <ele>172</ele>
        <time>2022-08-24T13:13:54Z</time>
      </trkpt>
      <trkpt lat="50.37236" lon="4.44257">
        <ele>170</ele>
        <time>2022-08-24T13:14:06Z</time>
      </trkpt>
      <trkpt lat="50.37319" lon="4.44313">
        <ele>169</ele>
        <time>2022-08-24T13:14:20Z</time>
      </trkpt>
      <trkpt lat="50.37344" lon="4.44332">
        <ele>168.4</ele>
        <time>2022-08-24T13:14:25Z</time>
      </trkpt>
      <trkpt lat="50.37363" lon="4.44346">
        <ele>167.8</ele>
        <time>2022-08-24T13:14:30Z</time>
      </trkpt>
      <trkpt lat="50.37388" lon="4.44359">
        <ele>167.4</ele>
        <time>2022-08-24T13:14:35Z</time>
      </trkpt>
      <trkpt lat="50.37406" lon="4.44357">
        <ele>167</ele>
        <time>2022-08-24T13:14:39Z</time>
      </trkpt>
      <trkpt lat="50.37427" lon="4.4435">
        <ele>166.6</ele>
        <time>2022-08-24T13:14:45Z</time>
      </trkpt>
      <trkpt lat="50.3744" lon="4.44342">
        <ele>166</ele>
        <time>2022-08-24T13:14:51Z</time>
      </trkpt>
      <trkpt lat="50.37452" lon="4.44334">
        <ele>165.8</ele>
        <time>2022-08-24T13:14:54Z</time>
      </trkpt>
      <trkpt lat="50.37468" lon="4.44311">
        <ele>165.4</ele>
        <time>2022-08-24T13:14:59Z</time>
      </trkpt>
      <trkpt lat="50.37487" lon="4.44261">
        <ele>164.4</ele>
        <time>2022-08-24T13:15:06Z</time>
      </trkpt>
      <trkpt lat="50.3749" lon="4.44246">
        <ele>164.2</ele>
        <time>2022-08-24T13:15:08Z</time>
      </trkpt>
      <trkpt lat="50.37495" lon="4.44216">
        <ele>163.8</ele>
        <time>2022-08-24T13:15:12Z</time>
      </trkpt>
      <trkpt lat="50.37498" lon="4.44187">
        <ele>163.2</ele>
        <time>2022-08-24T13:15:16Z</time>
      </trkpt>
      <trkpt lat="50.375" lon="4.44171">
        <ele>162.8</ele>
        <time>2022-08-24T13:15:18Z</time>
      </trkpt>
      <trkpt lat="50.37506" lon="4.44142">
        <ele>162</ele>
        <time>2022-08-24T13:15:22Z</time>
      </trkpt>
      <trkpt lat="50.3751" lon="4.44127">
        <ele>161.6</ele>
        <time>2022-08-24T13:15:24Z</time>
      </trkpt>
      <trkpt lat="50.37525" lon="4.4409">
        <ele>160.2</ele>
        <time>2022-08-24T13:15:29Z</time>
      </trkpt>
      <trkpt lat="50.3754" lon="4.44069">
        <ele>159.2</ele>
        <time>2022-08-24T13:15:33Z</time>
      </trkpt>
      <trkpt lat="50.3757" lon="4.44052">
        <ele>157.2</ele>
        <time>2022-08-24T13:15:40Z</time>
      </trkpt>
      <trkpt lat="50.3758" lon="4.44049">
        <ele>156.6</ele>
        <time>2022-08-24T13:15:42Z</time>
      </trkpt>
      <trkpt lat="50.37603" lon="4.44052">
        <ele>154.8</ele>
        <time>2022-08-24T13:15:47Z</time>
      </trkpt>
      <trkpt lat="50.37618" lon="4.44061">
        <ele>153.8</ele>
        <time>2022-08-24T13:15:50Z</time>
      </trkpt>
      <trkpt lat="50.3764" lon="4.44069">
        <ele>153.2</ele>
        <time>2022-08-24T13:15:56Z</time>
      </trkpt>
      <trkpt lat="50.37674" lon="4.4409">
        <ele>152.2</ele>
        <time>2022-08-24T13:16:07Z</time>
      </trkpt>
      <trkpt lat="50.37683" lon="4.44093">
        <ele>151.6</ele>
        <time>2022-08-24T13:16:12Z</time>
      </trkpt>
      <trkpt lat="50.37684" lon="4.44092">
        <ele>147.4</ele>
        <time>2022-08-24T13:17:07Z</time>
      </trkpt>
      <trkpt lat="50.37695" lon="4.44101">
        <ele>147.2</ele>
        <time>2022-08-24T13:17:22Z</time>
      </trkpt>
      <trkpt lat="50.37716" lon="4.44116">
        <ele>147.2</ele>
        <time>2022-08-24T13:17:27Z</time>
      </trkpt>
      <trkpt lat="50.37752" lon="4.44144">
        <ele>145.8</ele>
        <time>2022-08-24T13:17:36Z</time>
      </trkpt>
      <trkpt lat="50.37775" lon="4.44162">
        <ele>144.4</ele>
        <time>2022-08-24T13:17:41Z</time>
      </trkpt>
      <trkpt lat="50.37802" lon="4.4418">
        <ele>143.8</ele>
        <time>2022-08-24T13:17:46Z</time>
      </trkpt>
      <trkpt lat="50.37845" lon="4.44213">
        <ele>143</ele>
        <time>2022-08-24T13:17:55Z</time>
      </trkpt>
      <trkpt lat="50.37866" lon="4.44229">
        <ele>142.4</ele>
        <time>2022-08-24T13:17:59Z</time>
      </trkpt>
      <trkpt lat="50.37897" lon="4.44252">
        <ele>141.2</ele>
        <time>2022-08-24T13:18:05Z</time>
      </trkpt>
      <trkpt lat="50.37944" lon="4.44288">
        <ele>139.6</ele>
        <time>2022-08-24T13:18:14Z</time>
      </trkpt>
      <trkpt lat="50.37994" lon="4.44329">
        <ele>138.4</ele>
        <time>2022-08-24T13:18:23Z</time>
      </trkpt>
      <trkpt lat="50.38057" lon="4.44378">
        <ele>136.8</ele>
        <time>2022-08-24T13:18:35Z</time>
      </trkpt>
      <trkpt lat="50.38099" lon="4.4442">
        <ele>136</ele>
        <time>2022-08-24T13:18:43Z</time>
      </trkpt>
      <trkpt lat="50.38128" lon="4.44453">
        <ele>136</ele>
        <time>2022-08-24T13:18:49Z</time>
      </trkpt>
      <trkpt lat="50.38165" lon="4.44506">
        <ele>135.2</ele>
        <time>2022-08-24T13:19:01Z</time>
      </trkpt>
      <trkpt lat="50.38206" lon="4.4457">
        <ele>136.2</ele>
        <time>2022-08-24T13:19:13Z</time>
      </trkpt>
      <trkpt lat="50.38215" lon="4.44595">
        <ele>135.8</ele>
        <time>2022-08-24T13:19:17Z</time>
      </trkpt>
      <trkpt lat="50.38234" lon="4.44604">
        <ele>136</ele>
        <time>2022-08-24T13:19:24Z</time>
      </trkpt>
      <trkpt lat="50.38236" lon="4.44597">
        <ele>136</ele>
        <time>2022-08-24T13:19:25Z</time>
      </trkpt>
      <trkpt lat="50.3827" lon="4.44503">
        <ele>135.4</ele>
        <time>2022-08-24T13:19:35Z</time>
      </trkpt>
      <trkpt lat="50.38282" lon="4.44455">
        <ele>134.6</ele>
        <time>2022-08-24T13:19:42Z</time>
      </trkpt>
      <trkpt lat="50.38269" lon="4.44442">
        <ele>134.2</ele>
        <time>2022-08-24T13:19:45Z</time>
      </trkpt>
      <trkpt lat="50.38255" lon="4.44434">
        <ele>134</ele>
        <time>2022-08-24T13:19:49Z</time>
      </trkpt>
      <trkpt lat="50.38255" lon="4.44425">
        <ele>133.8</ele>
        <time>2022-08-24T13:19:52Z</time>
      </trkpt>
      <trkpt lat="50.38265" lon="4.4441">
        <ele>133.4</ele>
        <time>2022-08-24T13:19:56Z</time>
      </trkpt>
      <trkpt lat="50.38272" lon="4.44385">
        <ele>132.6</ele>
        <time>2022-08-24T13:20:00Z</time>
      </trkpt>
      <trkpt lat="50.38282" lon="4.44354">
        <ele>131.8</ele>
        <time>2022-08-24T13:20:05Z</time>
      </trkpt>
      <trkpt lat="50.38283" lon="4.44348">
        <ele>131.4</ele>
        <time>2022-08-24T13:20:06Z</time>
      </trkpt>
      <trkpt lat="50.38259" lon="4.44309">
        <ele>129.4</ele>
        <time>2022-08-24T13:20:13Z</time>
      </trkpt>
      <trkpt lat="50.38246" lon="4.44296">
        <ele>128.4</ele>
        <time>2022-08-24T13:20:17Z</time>
      </trkpt>
      <trkpt lat="50.38223" lon="4.44281">
        <ele>127.4</ele>
        <time>2022-08-24T13:20:22Z</time>
      </trkpt>
      <trkpt lat="50.38215" lon="4.44272">
        <ele>127</ele>
        <time>2022-08-24T13:20:24Z</time>
      </trkpt>
      <trkpt lat="50.38196" lon="4.4424">
        <ele>126</ele>
        <time>2022-08-24T13:20:29Z</time>
      </trkpt>
      <trkpt lat="50.38184" lon="4.44224">
        <ele>125.2</ele>
        <time>2022-08-24T13:20:32Z</time>
      </trkpt>
      <trkpt lat="50.3817" lon="4.44207">
        <ele>124</ele>
        <time>2022-08-24T13:20:36Z</time>
      </trkpt>
      <trkpt lat="50.38155" lon="4.44176">
        <ele>121.2</ele>
        <time>2022-08-24T13:20:42Z</time>
      </trkpt>
      <trkpt lat="50.38147" lon="4.44169">
        <ele>120.4</ele>
        <time>2022-08-24T13:20:44Z</time>
      </trkpt>
      <trkpt lat="50.38129" lon="4.44158">
        <ele>118.6</ele>
        <time>2022-08-24T13:20:48Z</time>
      </trkpt>
      <trkpt lat="50.381" lon="4.44132">
        <ele>116.2</ele>
        <time>2022-08-24T13:20:54Z</time>
      </trkpt>
      <trkpt lat="50.38074" lon="4.44112">
        <ele>114.8</ele>
        <time>2022-08-24T13:20:59Z</time>
      </trkpt>
      <trkpt lat="50.38053" lon="4.44103">
        <ele>114</ele>
        <time>2022-08-24T13:21:04Z</time>
      </trkpt>
      <trkpt lat="50.38039" lon="4.441">
        <ele>113.8</ele>
        <time>2022-08-24T13:21:08Z</time>
      </trkpt>
      <trkpt lat="50.38011" lon="4.44106">
        <ele>113.8</ele>
        <time>2022-08-24T13:21:18Z</time>
      </trkpt>
      <trkpt lat="50.37986" lon="4.44099">
        <ele>116.6</ele>
        <time>2022-08-24T13:21:26Z</time>
      </trkpt>
      <trkpt lat="50.37966" lon="4.4412">
        <ele>117.6</ele>
        <time>2022-08-24T13:21:34Z</time>
      </trkpt>
      <trkpt lat="50.37957" lon="4.44113">
        <ele>118</ele>
        <time>2022-08-24T13:21:37Z</time>
      </trkpt>
      <trkpt lat="50.37933" lon="4.44085">
        <ele>119.2</ele>
        <time>2022-08-24T13:21:45Z</time>
      </trkpt>
      <trkpt lat="50.37913" lon="4.44069">
        <ele>119.8</ele>
        <time>2022-08-24T13:21:50Z</time>
      </trkpt>
      <trkpt lat="50.37901" lon="4.44057">
        <ele>120.2</ele>
        <time>2022-08-24T13:21:53Z</time>
      </trkpt>
      <trkpt lat="50.37882" lon="4.44038">
        <ele>120.8</ele>
        <time>2022-08-24T13:21:59Z</time>
      </trkpt>
      <trkpt lat="50.3788" lon="4.44032">
        <ele>121</ele>
        <time>2022-08-24T13:22:00Z</time>
      </trkpt>
      <trkpt lat="50.37868" lon="4.44008">
        <ele>121.4</ele>
        <time>2022-08-24T13:22:04Z</time>
      </trkpt>
      <trkpt lat="50.37861" lon="4.43997">
        <ele>121.4</ele>
        <time>2022-08-24T13:22:06Z</time>
      </trkpt>
      <trkpt lat="50.37846" lon="4.43978">
        <ele>121.8</ele>
        <time>2022-08-24T13:22:10Z</time>
      </trkpt>
      <trkpt lat="50.37821" lon="4.43955">
        <ele>122</ele>
        <time>2022-08-24T13:22:16Z</time>
      </trkpt>
      <trkpt lat="50.37812" lon="4.43948">
        <ele>122.2</ele>
        <time>2022-08-24T13:22:18Z</time>
      </trkpt>
      <trkpt lat="50.37782" lon="4.43927">
        <ele>122.8</ele>
        <time>2022-08-24T13:22:25Z</time>
      </trkpt>
      <trkpt lat="50.3777" lon="4.43921">
        <ele>123.2</ele>
        <time>2022-08-24T13:22:28Z</time>
      </trkpt>
      <trkpt lat="50.37739" lon="4.43912">
        <ele>124.4</ele>
        <time>2022-08-24T13:22:37Z</time>
      </trkpt>
      <trkpt lat="50.37731" lon="4.43903">
        <ele>125</ele>
        <time>2022-08-24T13:22:41Z</time>
      </trkpt>
      <trkpt lat="50.37729" lon="4.439">
        <ele>126.2</ele>
        <time>2022-08-24T13:22:54Z</time>
      </trkpt>
      <trkpt lat="50.3773" lon="4.4388">
        <ele>126.8</ele>
        <time>2022-08-24T13:22:58Z</time>
      </trkpt>
      <trkpt lat="50.37735" lon="4.43844">
        <ele>127.2</ele>
        <time>2022-08-24T13:23:03Z</time>
      </trkpt>
      <trkpt lat="50.37748" lon="4.43734">
        <ele>128.2</ele>
        <time>2022-08-24T13:23:16Z</time>
      </trkpt>
      <trkpt lat="50.37754" lon="4.43657">
        <ele>129.2</ele>
        <time>2022-08-24T13:23:26Z</time>
      </trkpt>
      <trkpt lat="50.37752" lon="4.43635">
        <ele>129.4</ele>
        <time>2022-08-24T13:23:29Z</time>
      </trkpt>
      <trkpt lat="50.37761" lon="4.43612">
        <ele>129.8</ele>
        <time>2022-08-24T13:23:33Z</time>
      </trkpt>
      <trkpt lat="50.37783" lon="4.43597">
        <ele>130.6</ele>
        <time>2022-08-24T13:23:40Z</time>
      </trkpt>
      <trkpt lat="50.37793" lon="4.43598">
        <ele>131</ele>
        <time>2022-08-24T13:23:44Z</time>
      </trkpt>
      <trkpt lat="50.37795" lon="4.43596">
        <ele>131.2</ele>
        <time>2022-08-24T13:23:45Z</time>
      </trkpt>
      <trkpt lat="50.37808" lon="4.4358">
        <ele>131.4</ele>
        <time>2022-08-24T13:23:49Z</time>
      </trkpt>
      <trkpt lat="50.37883" lon="4.43491">
        <ele>131.4</ele>
        <time>2022-08-24T13:24:01Z</time>
      </trkpt>
      <trkpt lat="50.37931" lon="4.43434">
        <ele>132.4</ele>
        <time>2022-08-24T13:24:11Z</time>
      </trkpt>
      <trkpt lat="50.37954" lon="4.43409">
        <ele>133</ele>
        <time>2022-08-24T13:24:17Z</time>
      </trkpt>
      <trkpt lat="50.37997" lon="4.43386">
        <ele>133.8</ele>
        <time>2022-08-24T13:24:26Z</time>
      </trkpt>
      <trkpt lat="50.38024" lon="4.43369">
        <ele>134.2</ele>
        <time>2022-08-24T13:24:32Z</time>
      </trkpt>
      <trkpt lat="50.3802" lon="4.43356">
        <ele>135.2</ele>
        <time>2022-08-24T13:24:48Z</time>
      </trkpt>
      <trkpt lat="50.38018" lon="4.43356">
        <ele>143.5</ele>
      </trkpt>
      <trkpt lat="50.38002" lon="4.43327">
        <ele>144.9</ele>
      </trkpt>
      <trkpt lat="50.37987" lon="4.43305">
        <ele>145.5</ele>
        <time>2022-08-24T13:24:58Z</time>
      </trkpt>
      <trkpt lat="50.37958" lon="4.43257">
        <ele>146.9</ele>
        <time>2022-08-24T13:25:07Z</time>
      </trkpt>
      <trkpt lat="50.37931" lon="4.43212">
        <ele>147.7</ele>
      </trkpt>
      <trkpt lat="50.37926" lon="4.43201">
        <ele>147.8</ele>
      </trkpt>
      <trkpt lat="50.37917" lon="4.43188">
        <ele>148.2</ele>
        <time>2022-08-24T13:25:20Z</time>
      </trkpt>
      <trkpt lat="50.37876" lon="4.43119">
        <ele>148.7</ele>
        <time>2022-08-24T13:25:32Z</time>
      </trkpt>
      <trkpt lat="50.37852" lon="4.4308">
        <ele>148.7</ele>
      </trkpt>
      <trkpt lat="50.37816" lon="4.43016">
        <ele>149.4</ele>
        <time>2022-08-24T13:25:51Z</time>
      </trkpt>
      <trkpt lat="50.37803" lon="4.42994">
        <ele>150.2</ele>
      </trkpt>
      <trkpt lat="50.37797" lon="4.42985">
        <ele>150.4</ele>
      </trkpt>
      <trkpt lat="50.37791" lon="4.42974">
        <ele>150.4</ele>
        <time>2022-08-24T13:25:59Z</time>
      </trkpt>
      <trkpt lat="50.37756" lon="4.4291">
        <ele>151.8</ele>
      </trkpt>
      <trkpt lat="50.37745" lon="4.42889">
        <ele>152</ele>
        <time>2022-08-24T13:26:15Z</time>
      </trkpt>
      <trkpt lat="50.37739" lon="4.42878">
        <ele>152.4</ele>
        <time>2022-08-24T13:26:17Z</time>
      </trkpt>
      <trkpt lat="50.37727" lon="4.42857">
        <ele>153</ele>
      </trkpt>
      <trkpt lat="50.37714" lon="4.42827">
        <ele>153.1</ele>
        <time>2022-08-24T13:26:26Z</time>
      </trkpt>
      <trkpt lat="50.37712" lon="4.4283">
        <ele>143.6</ele>
        <time>2022-08-24T13:26:30Z</time>
      </trkpt>
      <trkpt lat="50.37702" lon="4.42837">
        <ele>143.8</ele>
        <time>2022-08-24T13:26:34Z</time>
      </trkpt>
      <trkpt lat="50.37685" lon="4.42848">
        <ele>144</ele>
        <time>2022-08-24T13:26:38Z</time>
      </trkpt>
      <trkpt lat="50.37651" lon="4.42875">
        <ele>144.2</ele>
        <time>2022-08-24T13:26:45Z</time>
      </trkpt>
      <trkpt lat="50.3763" lon="4.42889">
        <ele>144.6</ele>
        <time>2022-08-24T13:26:50Z</time>
      </trkpt>
      <trkpt lat="50.37608" lon="4.42904">
        <ele>145</ele>
        <time>2022-08-24T13:26:57Z</time>
      </trkpt>
      <trkpt lat="50.37598" lon="4.42901">
        <ele>145.2</ele>
        <time>2022-08-24T13:27:01Z</time>
      </trkpt>
      <trkpt lat="50.37578" lon="4.42866">
        <ele>145.4</ele>
        <time>2022-08-24T13:27:09Z</time>
      </trkpt>
      <trkpt lat="50.37566" lon="4.42834">
        <ele>145.8</ele>
        <time>2022-08-24T13:27:15Z</time>
      </trkpt>
      <trkpt lat="50.37553" lon="4.42779">
        <ele>146</ele>
        <time>2022-08-24T13:27:25Z</time>
      </trkpt>
      <trkpt lat="50.37544" lon="4.42748">
        <ele>146</ele>
        <time>2022-08-24T13:27:30Z</time>
      </trkpt>
      <trkpt lat="50.37538" lon="4.42716">
        <ele>145.8</ele>
        <time>2022-08-24T13:27:36Z</time>
      </trkpt>
      <trkpt lat="50.3753" lon="4.4268">
        <ele>145.4</ele>
        <time>2022-08-24T13:27:43Z</time>
      </trkpt>
      <trkpt lat="50.3752" lon="4.42636">
        <ele>144.6</ele>
        <time>2022-08-24T13:27:50Z</time>
      </trkpt>
      <trkpt lat="50.37509" lon="4.42601">
        <ele>143.8</ele>
        <time>2022-08-24T13:27:56Z</time>
      </trkpt>
      <trkpt lat="50.37504" lon="4.42591">
        <ele>143.6</ele>
        <time>2022-08-24T13:27:58Z</time>
      </trkpt>
      <trkpt lat="50.37497" lon="4.42579">
        <ele>143.2</ele>
        <time>2022-08-24T13:28:02Z</time>
      </trkpt>
      <trkpt lat="50.37489" lon="4.4256">
        <ele>142.6</ele>
        <time>2022-08-24T13:28:06Z</time>
      </trkpt>
      <trkpt lat="50.37466" lon="4.425">
        <ele>140</ele>
        <time>2022-08-24T13:28:17Z</time>
      </trkpt>
      <trkpt lat="50.37454" lon="4.42473">
        <ele>138.2</ele>
        <time>2022-08-24T13:28:22Z</time>
      </trkpt>
      <trkpt lat="50.37438" lon="4.42433">
        <ele>135.4</ele>
        <time>2022-08-24T13:28:29Z</time>
      </trkpt>
      <trkpt lat="50.37423" lon="4.42391">
        <ele>134</ele>
        <time>2022-08-24T13:28:37Z</time>
      </trkpt>
      <trkpt lat="50.37408" lon="4.4234">
        <ele>132.8</ele>
        <time>2022-08-24T13:28:46Z</time>
      </trkpt>
      <trkpt lat="50.37393" lon="4.4231">
        <ele>132.4</ele>
        <time>2022-08-24T13:28:51Z</time>
      </trkpt>
      <trkpt lat="50.3739" lon="4.42301">
        <ele>132.8</ele>
        <time>2022-08-24T13:28:52Z</time>
      </trkpt>
      <trkpt lat="50.37375" lon="4.4226">
        <ele>133.2</ele>
        <time>2022-08-24T13:28:58Z</time>
      </trkpt>
      <trkpt lat="50.37368" lon="4.42242">
        <ele>132.8</ele>
        <time>2022-08-24T13:29:01Z</time>
      </trkpt>
      <trkpt lat="50.37352" lon="4.42204">
        <ele>132.2</ele>
        <time>2022-08-24T13:29:08Z</time>
      </trkpt>
      <trkpt lat="50.37347" lon="4.42196">
        <ele>132.2</ele>
        <time>2022-08-24T13:29:14Z</time>
      </trkpt>
      <trkpt lat="50.37345" lon="4.42193">
        <ele>132.2</ele>
        <time>2022-08-24T13:29:18Z</time>
      </trkpt>
      <trkpt lat="50.37339" lon="4.42174">
        <ele>133</ele>
        <time>2022-08-24T13:29:23Z</time>
      </trkpt>
      <trkpt lat="50.37325" lon="4.42142">
        <ele>133.2</ele>
        <time>2022-08-24T13:29:30Z</time>
      </trkpt>
      <trkpt lat="50.37308" lon="4.42114">
        <ele>132.4</ele>
        <time>2022-08-24T13:29:36Z</time>
      </trkpt>
      <trkpt lat="50.37305" lon="4.42103">
        <ele>133</ele>
        <time>2022-08-24T13:29:39Z</time>
      </trkpt>
      <trkpt lat="50.37301" lon="4.421">
        <ele>133</ele>
        <time>2022-08-24T13:29:45Z</time>
      </trkpt>
      <trkpt lat="50.37299" lon="4.42103">
        <ele>133</ele>
        <time>2022-08-24T13:29:58Z</time>
      </trkpt>
      <trkpt lat="50.3729" lon="4.4211">
        <ele>133.4</ele>
        <time>2022-08-24T13:30:03Z</time>
      </trkpt>
      <trkpt lat="50.3729" lon="4.42112">
        <ele>133.8</ele>
        <time>2022-08-24T13:30:07Z</time>
      </trkpt>
      <trkpt lat="50.3729" lon="4.4211">
        <ele>134</ele>
        <time>2022-08-24T13:30:09Z</time>
      </trkpt>
      <trkpt lat="50.37293" lon="4.42106">
        <ele>134.2</ele>
        <time>2022-08-24T13:30:13Z</time>
      </trkpt>
      <trkpt lat="50.37301" lon="4.42103">
        <ele>134.6</ele>
        <time>2022-08-24T13:30:18Z</time>
      </trkpt>
      <trkpt lat="50.37302" lon="4.42102">
        <ele>135</ele>
        <time>2022-08-24T13:30:26Z</time>
      </trkpt>
      <trkpt lat="50.37299" lon="4.42097">
        <ele>135</ele>
        <time>2022-08-24T13:30:30Z</time>
      </trkpt>
      <trkpt lat="50.37295" lon="4.4209">
        <ele>135</ele>
        <time>2022-08-24T13:30:32Z</time>
      </trkpt>
      <trkpt lat="50.37278" lon="4.42064">
        <ele>135</ele>
        <time>2022-08-24T13:30:40Z</time>
      </trkpt>
      <trkpt lat="50.37261" lon="4.42032">
        <ele>134.2</ele>
        <time>2022-08-24T13:30:49Z</time>
      </trkpt>
      <trkpt lat="50.37242" lon="4.42004">
        <ele>132.8</ele>
        <time>2022-08-24T13:30:56Z</time>
      </trkpt>
      <trkpt lat="50.37238" lon="4.42">
        <ele>132.6</ele>
        <time>2022-08-24T13:30:57Z</time>
      </trkpt>
      <trkpt lat="50.37213" lon="4.41969">
        <ele>130.4</ele>
        <time>2022-08-24T13:31:06Z</time>
      </trkpt>
      <trkpt lat="50.37183" lon="4.41924">
        <ele>129</ele>
        <time>2022-08-24T13:31:16Z</time>
      </trkpt>
      <trkpt lat="50.37153" lon="4.41891">
        <ele>127.6</ele>
        <time>2022-08-24T13:31:25Z</time>
      </trkpt>
      <trkpt lat="50.37132" lon="4.41871">
        <ele>127.2</ele>
        <time>2022-08-24T13:31:31Z</time>
      </trkpt>
      <trkpt lat="50.37124" lon="4.41862">
        <ele>127</ele>
        <time>2022-08-24T13:31:33Z</time>
      </trkpt>
      <trkpt lat="50.37115" lon="4.41855">
        <ele>126.6</ele>
        <time>2022-08-24T13:31:35Z</time>
      </trkpt>
      <trkpt lat="50.37104" lon="4.41843">
        <ele>126.2</ele>
        <time>2022-08-24T13:31:38Z</time>
      </trkpt>
      <trkpt lat="50.37089" lon="4.41826">
        <ele>125.6</ele>
        <time>2022-08-24T13:31:42Z</time>
      </trkpt>
      <trkpt lat="50.37047" lon="4.41787">
        <ele>124.2</ele>
        <time>2022-08-24T13:31:53Z</time>
      </trkpt>
      <trkpt lat="50.37029" lon="4.41767">
        <ele>123.8</ele>
        <time>2022-08-24T13:31:58Z</time>
      </trkpt>
      <trkpt lat="50.37012" lon="4.41752">
        <ele>123.8</ele>
        <time>2022-08-24T13:32:02Z</time>
      </trkpt>
      <trkpt lat="50.36987" lon="4.41729">
        <ele>124</ele>
        <time>2022-08-24T13:32:08Z</time>
      </trkpt>
      <trkpt lat="50.36957" lon="4.41705">
        <ele>123.6</ele>
        <time>2022-08-24T13:32:14Z</time>
      </trkpt>
      <trkpt lat="50.36914" lon="4.41675">
        <ele>122.8</ele>
        <time>2022-08-24T13:32:22Z</time>
      </trkpt>
      <trkpt lat="50.36891" lon="4.41653">
        <ele>122.4</ele>
        <time>2022-08-24T13:32:27Z</time>
      </trkpt>
      <trkpt lat="50.36854" lon="4.41616">
        <ele>122</ele>
        <time>2022-08-24T13:32:36Z</time>
      </trkpt>
      <trkpt lat="50.36843" lon="4.41606">
        <ele>122</ele>
        <time>2022-08-24T13:32:39Z</time>
      </trkpt>
      <trkpt lat="50.3683" lon="4.41595">
        <ele>122</ele>
        <time>2022-08-24T13:32:44Z</time>
      </trkpt>
      <trkpt lat="50.36829" lon="4.4159">
        <ele>122.2</ele>
        <time>2022-08-24T13:32:55Z</time>
      </trkpt>
      <trkpt lat="50.36828" lon="4.41583">
        <ele>122.8</ele>
        <time>2022-08-24T13:33:07Z</time>
      </trkpt>
      <trkpt lat="50.36834" lon="4.4155">
        <ele>123.2</ele>
        <time>2022-08-24T13:33:19Z</time>
      </trkpt>
      <trkpt lat="50.36836" lon="4.41538">
        <ele>123.2</ele>
        <time>2022-08-24T13:33:22Z</time>
      </trkpt>
      <trkpt lat="50.36832" lon="4.41522">
        <ele>123.2</ele>
        <time>2022-08-24T13:33:25Z</time>
      </trkpt>
      <trkpt lat="50.36833" lon="4.415">
        <ele>123.2</ele>
        <time>2022-08-24T13:33:28Z</time>
      </trkpt>
      <trkpt lat="50.36833" lon="4.4145">
        <ele>123.6</ele>
        <time>2022-08-24T13:33:35Z</time>
      </trkpt>
      <trkpt lat="50.36846" lon="4.41393">
        <ele>124.4</ele>
        <time>2022-08-24T13:33:45Z</time>
      </trkpt>
      <trkpt lat="50.36867" lon="4.41305">
        <ele>127</ele>
        <time>2022-08-24T13:34:01Z</time>
      </trkpt>
      <trkpt lat="50.36873" lon="4.41277">
        <ele>127.8</ele>
        <time>2022-08-24T13:34:07Z</time>
      </trkpt>
      <trkpt lat="50.36879" lon="4.41229">
        <ele>129.2</ele>
        <time>2022-08-24T13:34:17Z</time>
      </trkpt>
      <trkpt lat="50.36914" lon="4.41196">
        <ele>131.4</ele>
        <time>2022-08-24T13:34:30Z</time>
      </trkpt>
      <trkpt lat="50.36961" lon="4.41193">
        <ele>134</ele>
        <time>2022-08-24T13:34:44Z</time>
      </trkpt>
      <trkpt lat="50.37007" lon="4.4119">
        <ele>136.8</ele>
        <time>2022-08-24T13:34:59Z</time>
      </trkpt>
      <trkpt lat="50.37027" lon="4.41193">
        <ele>137.8</ele>
        <time>2022-08-24T13:35:05Z</time>
      </trkpt>
      <trkpt lat="50.37032" lon="4.41184">
        <ele>138.2</ele>
        <time>2022-08-24T13:35:08Z</time>
      </trkpt>
      <trkpt lat="50.37037" lon="4.41169">
        <ele>138.8</ele>
        <time>2022-08-24T13:35:12Z</time>
      </trkpt>
      <trkpt lat="50.3706" lon="4.41126">
        <ele>140</ele>
        <time>2022-08-24T13:35:23Z</time>
      </trkpt>
      <trkpt lat="50.37069" lon="4.41108">
        <ele>140.2</ele>
        <time>2022-08-24T13:35:27Z</time>
      </trkpt>
      <trkpt lat="50.37089" lon="4.41069">
        <ele>140.4</ele>
        <time>2022-08-24T13:35:35Z</time>
      </trkpt>
      <trkpt lat="50.37111" lon="4.4103">
        <ele>140.4</ele>
        <time>2022-08-24T13:35:44Z</time>
      </trkpt>
      <trkpt lat="50.37137" lon="4.41006">
        <ele>140.6</ele>
        <time>2022-08-24T13:35:51Z</time>
      </trkpt>
      <trkpt lat="50.37178" lon="4.40971">
        <ele>141</ele>
        <time>2022-08-24T13:36:04Z</time>
      </trkpt>
      <trkpt lat="50.37179" lon="4.40972">
        <ele>141.4</ele>
        <time>2022-08-24T13:36:11Z</time>
      </trkpt>
      <trkpt lat="50.37199" lon="4.40989">
        <ele>141.8</ele>
        <time>2022-08-24T13:36:17Z</time>
      </trkpt>
      <trkpt lat="50.37215" lon="4.41008">
        <ele>142</ele>
        <time>2022-08-24T13:36:23Z</time>
      </trkpt>
      <trkpt lat="50.3722" lon="4.41004">
        <ele>142.2</ele>
        <time>2022-08-24T13:36:26Z</time>
      </trkpt>
      <trkpt lat="50.37228" lon="4.40985">
        <ele>142.6</ele>
        <time>2022-08-24T13:36:30Z</time>
      </trkpt>
      <trkpt lat="50.37234" lon="4.40974">
        <ele>142.4</ele>
        <time>2022-08-24T13:36:32Z</time>
      </trkpt>
      <trkpt lat="50.37245" lon="4.40938">
        <ele>142.4</ele>
        <time>2022-08-24T13:36:37Z</time>
      </trkpt>
      <trkpt lat="50.37272" lon="4.40845">
        <ele>142.4</ele>
        <time>2022-08-24T13:36:51Z</time>
      </trkpt>
      <trkpt lat="50.37289" lon="4.40751">
        <ele>143.2</ele>
        <time>2022-08-24T13:37:05Z</time>
      </trkpt>
      <trkpt lat="50.37292" lon="4.40738">
        <ele>143.2</ele>
        <time>2022-08-24T13:37:07Z</time>
      </trkpt>
      <trkpt lat="50.3729" lon="4.40703">
        <ele>143.6</ele>
        <time>2022-08-24T13:37:13Z</time>
      </trkpt>
      <trkpt lat="50.37283" lon="4.40696">
        <ele>143.6</ele>
        <time>2022-08-24T13:37:15Z</time>
      </trkpt>
      <trkpt lat="50.3726" lon="4.40692">
        <ele>143.8</ele>
        <time>2022-08-24T13:37:21Z</time>
      </trkpt>
      <trkpt lat="50.37254" lon="4.40683">
        <ele>144</ele>
        <time>2022-08-24T13:37:23Z</time>
      </trkpt>
      <trkpt lat="50.3725" lon="4.40669">
        <ele>144.2</ele>
        <time>2022-08-24T13:37:25Z</time>
      </trkpt>
      <trkpt lat="50.37243" lon="4.40619">
        <ele>144.4</ele>
        <time>2022-08-24T13:37:31Z</time>
      </trkpt>
      <trkpt lat="50.37257" lon="4.40556">
        <ele>144.6</ele>
        <time>2022-08-24T13:37:42Z</time>
      </trkpt>
      <trkpt lat="50.37291" lon="4.40485">
        <ele>144.8</ele>
        <time>2022-08-24T13:37:56Z</time>
      </trkpt>
      <trkpt lat="50.37328" lon="4.404">
        <ele>144</ele>
        <time>2022-08-24T13:38:13Z</time>
      </trkpt>
      <trkpt lat="50.3734" lon="4.40369">
        <ele>143.4</ele>
        <time>2022-08-24T13:38:20Z</time>
      </trkpt>
      <trkpt lat="50.37361" lon="4.40341">
        <ele>142.8</ele>
        <time>2022-08-24T13:38:30Z</time>
      </trkpt>
      <trkpt lat="50.37397" lon="4.40294">
        <ele>142.8</ele>
        <time>2022-08-24T13:38:43Z</time>
      </trkpt>
      <trkpt lat="50.37425" lon="4.40258">
        <ele>143.8</ele>
        <time>2022-08-24T13:38:54Z</time>
      </trkpt>
      <trkpt lat="50.37439" lon="4.40238">
        <ele>144</ele>
        <time>2022-08-24T13:39:00Z</time>
      </trkpt>
      <trkpt lat="50.3745" lon="4.40214">
        <ele>144.6</ele>
        <time>2022-08-24T13:39:08Z</time>
      </trkpt>
      <trkpt lat="50.37445" lon="4.40196">
        <ele>144.8</ele>
        <time>2022-08-24T13:39:11Z</time>
      </trkpt>
      <trkpt lat="50.37443" lon="4.40161">
        <ele>145.2</ele>
        <time>2022-08-24T13:39:16Z</time>
      </trkpt>
      <trkpt lat="50.37438" lon="4.40072">
        <ele>145.8</ele>
        <time>2022-08-24T13:39:27Z</time>
      </trkpt>
      <trkpt lat="50.3744" lon="4.40032">
        <ele>146</ele>
        <time>2022-08-24T13:39:32Z</time>
      </trkpt>
      <trkpt lat="50.37443" lon="4.40017">
        <ele>146</ele>
        <time>2022-08-24T13:39:34Z</time>
      </trkpt>
      <trkpt lat="50.37474" lon="4.39961">
        <ele>146.2</ele>
        <time>2022-08-24T13:39:45Z</time>
      </trkpt>
      <trkpt lat="50.37489" lon="4.39952">
        <ele>146.4</ele>
        <time>2022-08-24T13:39:49Z</time>
      </trkpt>
      <trkpt lat="50.37521" lon="4.39952">
        <ele>146.8</ele>
        <time>2022-08-24T13:39:55Z</time>
      </trkpt>
      <trkpt lat="50.37539" lon="4.39951">
        <ele>147</ele>
        <time>2022-08-24T13:39:59Z</time>
      </trkpt>
      <trkpt lat="50.37546" lon="4.39933">
        <ele>147.2</ele>
        <time>2022-08-24T13:40:02Z</time>
      </trkpt>
      <trkpt lat="50.37557" lon="4.39903">
        <ele>147.2</ele>
        <time>2022-08-24T13:40:06Z</time>
      </trkpt>
      <trkpt lat="50.37577" lon="4.39862">
        <ele>147.2</ele>
        <time>2022-08-24T13:40:12Z</time>
      </trkpt>
      <trkpt lat="50.37596" lon="4.39818">
        <ele>147</ele>
        <time>2022-08-24T13:40:18Z</time>
      </trkpt>
      <trkpt lat="50.37606" lon="4.39779">
        <ele>146.8</ele>
        <time>2022-08-24T13:40:23Z</time>
      </trkpt>
      <trkpt lat="50.37595" lon="4.39723">
        <ele>145.8</ele>
        <time>2022-08-24T13:40:29Z</time>
      </trkpt>
      <trkpt lat="50.37605" lon="4.39691">
        <ele>145.2</ele>
        <time>2022-08-24T13:40:33Z</time>
      </trkpt>
      <trkpt lat="50.37628" lon="4.39636">
        <ele>143.8</ele>
        <time>2022-08-24T13:40:40Z</time>
      </trkpt>
      <trkpt lat="50.37644" lon="4.39595">
        <ele>142.6</ele>
        <time>2022-08-24T13:40:46Z</time>
      </trkpt>
      <trkpt lat="50.37653" lon="4.39542">
        <ele>140.8</ele>
        <time>2022-08-24T13:40:55Z</time>
      </trkpt>
      <trkpt lat="50.37654" lon="4.39541">
        <ele>133</ele>
        <time>2022-08-24T13:42:14Z</time>
      </trkpt>
      <trkpt lat="50.37654" lon="4.39539">
        <ele>132.4</ele>
        <time>2022-08-24T13:42:28Z</time>
      </trkpt>
      <trkpt lat="50.37654" lon="4.39537">
        <ele>132.2</ele>
        <time>2022-08-24T13:42:31Z</time>
      </trkpt>
      <trkpt lat="50.37655" lon="4.39534">
        <ele>131.8</ele>
        <time>2022-08-24T13:42:54Z</time>
      </trkpt>
      <trkpt lat="50.37656" lon="4.39521">
        <ele>131.4</ele>
        <time>2022-08-24T13:42:58Z</time>
      </trkpt>
      <trkpt lat="50.37663" lon="4.39485">
        <ele>130.2</ele>
        <time>2022-08-24T13:43:06Z</time>
      </trkpt>
      <trkpt lat="50.37668" lon="4.3947">
        <ele>129.4</ele>
        <time>2022-08-24T13:43:10Z</time>
      </trkpt>
      <trkpt lat="50.3767" lon="4.39463">
        <ele>128.8</ele>
        <time>2022-08-24T13:43:12Z</time>
      </trkpt>
      <trkpt lat="50.37679" lon="4.39443">
        <ele>127.4</ele>
        <time>2022-08-24T13:43:17Z</time>
      </trkpt>
      <trkpt lat="50.37678" lon="4.39409">
        <ele>125</ele>
        <time>2022-08-24T13:43:25Z</time>
      </trkpt>
      <trkpt lat="50.37657" lon="4.39378">
        <ele>123.4</ele>
        <time>2022-08-24T13:43:30Z</time>
      </trkpt>
      <trkpt lat="50.37649" lon="4.3936">
        <ele>122.8</ele>
        <time>2022-08-24T13:43:33Z</time>
      </trkpt>
      <trkpt lat="50.37646" lon="4.39334">
        <ele>122</ele>
        <time>2022-08-24T13:43:37Z</time>
      </trkpt>
      <trkpt lat="50.37659" lon="4.39282">
        <ele>120.6</ele>
        <time>2022-08-24T13:43:45Z</time>
      </trkpt>
      <trkpt lat="50.37662" lon="4.3926">
        <ele>119.8</ele>
        <time>2022-08-24T13:43:48Z</time>
      </trkpt>
      <trkpt lat="50.37665" lon="4.39223">
        <ele>118.6</ele>
        <time>2022-08-24T13:43:53Z</time>
      </trkpt>
      <trkpt lat="50.37666" lon="4.39209">
        <ele>118</ele>
        <time>2022-08-24T13:43:55Z</time>
      </trkpt>
      <trkpt lat="50.37668" lon="4.39179">
        <ele>117</ele>
        <time>2022-08-24T13:43:59Z</time>
      </trkpt>
      <trkpt lat="50.37678" lon="4.3915">
        <ele>115.8</ele>
        <time>2022-08-24T13:44:03Z</time>
      </trkpt>
      <trkpt lat="50.37683" lon="4.39102">
        <ele>113</ele>
        <time>2022-08-24T13:44:11Z</time>
      </trkpt>
      <trkpt lat="50.37687" lon="4.39084">
        <ele>112.4</ele>
        <time>2022-08-24T13:44:14Z</time>
      </trkpt>
      <trkpt lat="50.37695" lon="4.39083">
        <ele>111.8</ele>
        <time>2022-08-24T13:44:16Z</time>
      </trkpt>
      <trkpt lat="50.3772" lon="4.39088">
        <ele>110.4</ele>
        <time>2022-08-24T13:44:22Z</time>
      </trkpt>
      <trkpt lat="50.37744" lon="4.3909">
        <ele>108.6</ele>
        <time>2022-08-24T13:44:28Z</time>
      </trkpt>
      <trkpt lat="50.37758" lon="4.39085">
        <ele>108.6</ele>
        <time>2022-08-24T13:44:31Z</time>
      </trkpt>
      <trkpt lat="50.37816" lon="4.39052">
        <ele>107</ele>
        <time>2022-08-24T13:44:44Z</time>
      </trkpt>
      <trkpt lat="50.37824" lon="4.39049">
        <ele>106.8</ele>
        <time>2022-08-24T13:44:46Z</time>
      </trkpt>
      <trkpt lat="50.37838" lon="4.39044">
        <ele>106.4</ele>
        <time>2022-08-24T13:44:49Z</time>
      </trkpt>
      <trkpt lat="50.37879" lon="4.39029">
        <ele>105.4</ele>
        <time>2022-08-24T13:44:57Z</time>
      </trkpt>
      <trkpt lat="50.37945" lon="4.39005">
        <ele>104.8</ele>
        <time>2022-08-24T13:45:10Z</time>
      </trkpt>
      <trkpt lat="50.37949" lon="4.39004">
        <ele>104.8</ele>
        <time>2022-08-24T13:45:11Z</time>
      </trkpt>
      <trkpt lat="50.37992" lon="4.39001">
        <ele>104</ele>
        <time>2022-08-24T13:45:20Z</time>
      </trkpt>
      <trkpt lat="50.38023" lon="4.38996">
        <ele>103.6</ele>
        <time>2022-08-24T13:45:26Z</time>
      </trkpt>
      <trkpt lat="50.38033" lon="4.38981">
        <ele>103.6</ele>
        <time>2022-08-24T13:45:29Z</time>
      </trkpt>
      <trkpt lat="50.38046" lon="4.38958">
        <ele>103.6</ele>
        <time>2022-08-24T13:45:33Z</time>
      </trkpt>
      <trkpt lat="50.38062" lon="4.38951">
        <ele>103.6</ele>
        <time>2022-08-24T13:45:36Z</time>
      </trkpt>
      <trkpt lat="50.38102" lon="4.38932">
        <ele>103.6</ele>
        <time>2022-08-24T13:45:44Z</time>
      </trkpt>
      <trkpt lat="50.38136" lon="4.38913">
        <ele>103.4</ele>
        <time>2022-08-24T13:45:51Z</time>
      </trkpt>
      <trkpt lat="50.38154" lon="4.38913">
        <ele>103.6</ele>
        <time>2022-08-24T13:45:55Z</time>
      </trkpt>
      <trkpt lat="50.38193" lon="4.38934">
        <ele>104</ele>
        <time>2022-08-24T13:46:03Z</time>
      </trkpt>
      <trkpt lat="50.38203" lon="4.38932">
        <ele>104</ele>
        <time>2022-08-24T13:46:05Z</time>
      </trkpt>
      <trkpt lat="50.38279" lon="4.38893">
        <ele>105</ele>
        <time>2022-08-24T13:46:20Z</time>
      </trkpt>
      <trkpt lat="50.38307" lon="4.38888">
        <ele>105.4</ele>
        <time>2022-08-24T13:46:26Z</time>
      </trkpt>
      <trkpt lat="50.38327" lon="4.38894">
        <ele>105.6</ele>
        <time>2022-08-24T13:46:36Z</time>
      </trkpt>
      <trkpt lat="50.38329" lon="4.38883">
        <ele>106.4</ele>
        <time>2022-08-24T13:46:53Z</time>
      </trkpt>
      <trkpt lat="50.38325" lon="4.38858">
        <ele>106.4</ele>
        <time>2022-08-24T13:46:56Z</time>
      </trkpt>
      <trkpt lat="50.38306" lon="4.38811">
        <ele>106.2</ele>
        <time>2022-08-24T13:47:02Z</time>
      </trkpt>
      <trkpt lat="50.38297" lon="4.38756">
        <ele>106.6</ele>
        <time>2022-08-24T13:47:10Z</time>
      </trkpt>
      <trkpt lat="50.383" lon="4.38755">
        <ele>106.8</ele>
        <time>2022-08-24T13:47:16Z</time>
      </trkpt>
      <trkpt lat="50.38301" lon="4.38753">
        <ele>106.8</ele>
        <time>2022-08-24T13:47:17Z</time>
      </trkpt>
      <trkpt lat="50.38321" lon="4.38731">
        <ele>106.8</ele>
        <time>2022-08-24T13:47:25Z</time>
      </trkpt>
      <trkpt lat="50.38362" lon="4.38716">
        <ele>106.4</ele>
        <time>2022-08-24T13:47:35Z</time>
      </trkpt>
      <trkpt lat="50.38423" lon="4.38711">
        <ele>105.8</ele>
        <time>2022-08-24T13:47:48Z</time>
      </trkpt>
      <trkpt lat="50.38451" lon="4.38709">
        <ele>105</ele>
        <time>2022-08-24T13:47:54Z</time>
      </trkpt>
      <trkpt lat="50.38514" lon="4.38692">
        <ele>103.4</ele>
        <time>2022-08-24T13:48:06Z</time>
      </trkpt>
      <trkpt lat="50.38541" lon="4.38688">
        <ele>103</ele>
        <time>2022-08-24T13:48:11Z</time>
      </trkpt>
      <trkpt lat="50.38574" lon="4.38686">
        <ele>102.2</ele>
        <time>2022-08-24T13:48:19Z</time>
      </trkpt>
      <trkpt lat="50.38612" lon="4.38688">
        <ele>101.2</ele>
        <time>2022-08-24T13:48:27Z</time>
      </trkpt>
      <trkpt lat="50.38625" lon="4.38688">
        <ele>100.8</ele>
        <time>2022-08-24T13:48:30Z</time>
      </trkpt>
      <trkpt lat="50.38654" lon="4.38679">
        <ele>100</ele>
        <time>2022-08-24T13:48:37Z</time>
      </trkpt>
      <trkpt lat="50.38685" lon="4.38679">
        <ele>98.6</ele>
        <time>2022-08-24T13:48:45Z</time>
      </trkpt>
      <trkpt lat="50.38714" lon="4.38708">
        <ele>97.8</ele>
        <time>2022-08-24T13:48:52Z</time>
      </trkpt>
      <trkpt lat="50.38737" lon="4.38735">
        <ele>97.8</ele>
        <time>2022-08-24T13:48:58Z</time>
      </trkpt>
      <trkpt lat="50.38745" lon="4.38744">
        <ele>97.8</ele>
        <time>2022-08-24T13:49:00Z</time>
      </trkpt>
      <trkpt lat="50.3878" lon="4.38789">
        <ele>98</ele>
        <time>2022-08-24T13:49:10Z</time>
      </trkpt>
      <trkpt lat="50.38807" lon="4.38848">
        <ele>99.4</ele>
        <time>2022-08-24T13:49:20Z</time>
      </trkpt>
      <trkpt lat="50.38821" lon="4.3888">
        <ele>100.2</ele>
        <time>2022-08-24T13:49:25Z</time>
      </trkpt>
      <trkpt lat="50.38824" lon="4.38886">
        <ele>100.4</ele>
        <time>2022-08-24T13:49:26Z</time>
      </trkpt>
      <trkpt lat="50.38856" lon="4.38933">
        <ele>101.6</ele>
        <time>2022-08-24T13:49:35Z</time>
      </trkpt>
      <trkpt lat="50.38874" lon="4.38963">
        <ele>102.4</ele>
        <time>2022-08-24T13:49:40Z</time>
      </trkpt>
      <trkpt lat="50.38941" lon="4.39053">
        <ele>103.8</ele>
        <time>2022-08-24T13:49:57Z</time>
      </trkpt>
      <trkpt lat="50.39007" lon="4.39144">
        <ele>104.6</ele>
        <time>2022-08-24T13:50:13Z</time>
      </trkpt>
      <trkpt lat="50.39032" lon="4.39177">
        <ele>104.8</ele>
        <time>2022-08-24T13:50:19Z</time>
      </trkpt>
      <trkpt lat="50.39102" lon="4.39274">
        <ele>105</ele>
        <time>2022-08-24T13:50:36Z</time>
      </trkpt>
      <trkpt lat="50.39135" lon="4.39319">
        <ele>105.2</ele>
        <time>2022-08-24T13:50:44Z</time>
      </trkpt>
      <trkpt lat="50.39155" lon="4.3936">
        <ele>105.4</ele>
        <time>2022-08-24T13:50:50Z</time>
      </trkpt>
      <trkpt lat="50.39175" lon="4.39423">
        <ele>105.6</ele>
        <time>2022-08-24T13:50:58Z</time>
      </trkpt>
      <trkpt lat="50.39178" lon="4.3943">
        <ele>105.6</ele>
        <time>2022-08-24T13:50:59Z</time>
      </trkpt>
      <trkpt lat="50.39226" lon="4.39532">
        <ele>105.6</ele>
        <time>2022-08-24T13:51:13Z</time>
      </trkpt>
      <trkpt lat="50.39285" lon="4.39624">
        <ele>105.2</ele>
        <time>2022-08-24T13:51:28Z</time>
      </trkpt>
      <trkpt lat="50.39359" lon="4.39675">
        <ele>105.2</ele>
        <time>2022-08-24T13:51:42Z</time>
      </trkpt>
      <trkpt lat="50.39391" lon="4.3969">
        <ele>105.2</ele>
        <time>2022-08-24T13:51:48Z</time>
      </trkpt>
      <trkpt lat="50.39463" lon="4.39706">
        <ele>105</ele>
        <time>2022-08-24T13:52:01Z</time>
      </trkpt>
      <trkpt lat="50.39523" lon="4.39719">
        <ele>104.4</ele>
        <time>2022-08-24T13:52:11Z</time>
      </trkpt>
      <trkpt lat="50.39617" lon="4.39744">
        <ele>104</ele>
        <time>2022-08-24T13:52:28Z</time>
      </trkpt>
      <trkpt lat="50.39656" lon="4.39756">
        <ele>104</ele>
        <time>2022-08-24T13:52:35Z</time>
      </trkpt>
      <trkpt lat="50.39693" lon="4.39767">
        <ele>104</ele>
        <time>2022-08-24T13:52:42Z</time>
      </trkpt>
      <trkpt lat="50.39725" lon="4.39781">
        <ele>104.2</ele>
        <time>2022-08-24T13:52:49Z</time>
      </trkpt>
      <trkpt lat="50.39729" lon="4.3979">
        <ele>104.2</ele>
        <time>2022-08-24T13:52:51Z</time>
      </trkpt>
      <trkpt lat="50.39724" lon="4.39799">
        <ele>104.2</ele>
        <time>2022-08-24T13:52:53Z</time>
      </trkpt>
      <trkpt lat="50.39711" lon="4.39807">
        <ele>104.2</ele>
        <time>2022-08-24T13:52:56Z</time>
      </trkpt>
      <trkpt lat="50.39691" lon="4.39831">
        <ele>104.2</ele>
        <time>2022-08-24T13:53:01Z</time>
      </trkpt>
      <trkpt lat="50.39681" lon="4.39858">
        <ele>104.4</ele>
        <time>2022-08-24T13:53:05Z</time>
      </trkpt>
      <trkpt lat="50.39672" lon="4.39917">
        <ele>104.4</ele>
        <time>2022-08-24T13:53:13Z</time>
      </trkpt>
      <trkpt lat="50.39659" lon="4.39963">
        <ele>104.6</ele>
        <time>2022-08-24T13:53:19Z</time>
      </trkpt>
      <trkpt lat="50.39626" lon="4.40027">
        <ele>104.6</ele>
        <time>2022-08-24T13:53:29Z</time>
      </trkpt>
      <trkpt lat="50.39582" lon="4.40116">
        <ele>104.8</ele>
        <time>2022-08-24T13:53:43Z</time>
      </trkpt>
      <trkpt lat="50.39525" lon="4.40229">
        <ele>105.8</ele>
        <time>2022-08-24T13:54:01Z</time>
      </trkpt>
      <trkpt lat="50.39511" lon="4.40261">
        <ele>106</ele>
        <time>2022-08-24T13:54:07Z</time>
      </trkpt>
      <trkpt lat="50.39526" lon="4.403">
        <ele>106.4</ele>
        <time>2022-08-24T13:54:16Z</time>
      </trkpt>
      <trkpt lat="50.39546" lon="4.40315">
        <ele>106.8</ele>
        <time>2022-08-24T13:54:22Z</time>
      </trkpt>
      <trkpt lat="50.39585" lon="4.40348">
        <ele>107.8</ele>
        <time>2022-08-24T13:54:35Z</time>
      </trkpt>
      <trkpt lat="50.39587" lon="4.40402">
        <ele>109</ele>
        <time>2022-08-24T13:54:46Z</time>
      </trkpt>
      <trkpt lat="50.39569" lon="4.40477">
        <ele>111.8</ele>
        <time>2022-08-24T13:55:02Z</time>
      </trkpt>
      <trkpt lat="50.3956" lon="4.40546">
        <ele>114</ele>
        <time>2022-08-24T13:55:16Z</time>
      </trkpt>
      <trkpt lat="50.39555" lon="4.40591">
        <ele>115.6</ele>
        <time>2022-08-24T13:55:25Z</time>
      </trkpt>
      <trkpt lat="50.39548" lon="4.40661">
        <ele>118.6</ele>
        <time>2022-08-24T13:55:39Z</time>
      </trkpt>
      <trkpt lat="50.39538" lon="4.40747">
        <ele>122.2</ele>
        <time>2022-08-24T13:55:56Z</time>
      </trkpt>
      <trkpt lat="50.39531" lon="4.40807">
        <ele>125.2</ele>
        <time>2022-08-24T13:56:09Z</time>
      </trkpt>
      <trkpt lat="50.39527" lon="4.4084">
        <ele>126.8</ele>
        <time>2022-08-24T13:56:16Z</time>
      </trkpt>
      <trkpt lat="50.39538" lon="4.40866">
        <ele>128.8</ele>
        <time>2022-08-24T13:56:24Z</time>
      </trkpt>
      <trkpt lat="50.39564" lon="4.40862">
        <ele>130</ele>
        <time>2022-08-24T13:56:30Z</time>
      </trkpt>
      <trkpt lat="50.39594" lon="4.4086">
        <ele>131</ele>
        <time>2022-08-24T13:56:37Z</time>
      </trkpt>
      <trkpt lat="50.39627" lon="4.40878">
        <ele>131.6</ele>
        <time>2022-08-24T13:56:48Z</time>
      </trkpt>
      <trkpt lat="50.39627" lon="4.40884">
        <ele>131.6</ele>
        <time>2022-08-24T13:56:49Z</time>
      </trkpt>
      <trkpt lat="50.39634" lon="4.40908">
        <ele>132</ele>
        <time>2022-08-24T13:56:53Z</time>
      </trkpt>
      <trkpt lat="50.39654" lon="4.40956">
        <ele>132.4</ele>
        <time>2022-08-24T13:57:03Z</time>
      </trkpt>
      <trkpt lat="50.39671" lon="4.41023">
        <ele>132.6</ele>
        <time>2022-08-24T13:57:14Z</time>
      </trkpt>
      <trkpt lat="50.39675" lon="4.41034">
        <ele>132.6</ele>
        <time>2022-08-24T13:57:17Z</time>
      </trkpt>
      <trkpt lat="50.39682" lon="4.41037">
        <ele>132.6</ele>
        <time>2022-08-24T13:57:19Z</time>
      </trkpt>
      <trkpt lat="50.39744" lon="4.41046">
        <ele>132.2</ele>
        <time>2022-08-24T13:57:30Z</time>
      </trkpt>
      <trkpt lat="50.39771" lon="4.41056">
        <ele>131.8</ele>
        <time>2022-08-24T13:57:37Z</time>
      </trkpt>
      <trkpt lat="50.39771" lon="4.41064">
        <ele>131.6</ele>
        <time>2022-08-24T13:57:47Z</time>
      </trkpt>
      <trkpt lat="50.3977" lon="4.41078">
        <ele>131.6</ele>
        <time>2022-08-24T13:57:51Z</time>
      </trkpt>
      <trkpt lat="50.3977" lon="4.4109">
        <ele>131.4</ele>
        <time>2022-08-24T13:57:54Z</time>
      </trkpt>
      <trkpt lat="50.39781" lon="4.41102">
        <ele>130.4</ele>
        <time>2022-08-24T13:57:59Z</time>
      </trkpt>
      <trkpt lat="50.39779" lon="4.41139">
        <ele>129.6</ele>
        <time>2022-08-24T13:58:06Z</time>
      </trkpt>
      <trkpt lat="50.39775" lon="4.41191">
        <ele>128.4</ele>
        <time>2022-08-24T13:58:16Z</time>
      </trkpt>
      <trkpt lat="50.39774" lon="4.41217">
        <ele>127.8</ele>
        <time>2022-08-24T13:58:21Z</time>
      </trkpt>
      <trkpt lat="50.39773" lon="4.41232">
        <ele>127.6</ele>
        <time>2022-08-24T13:58:24Z</time>
      </trkpt>
      <trkpt lat="50.39765" lon="4.41286">
        <ele>126.4</ele>
        <time>2022-08-24T13:58:34Z</time>
      </trkpt>
      <trkpt lat="50.39765" lon="4.41313">
        <ele>125.8</ele>
        <time>2022-08-24T13:58:39Z</time>
      </trkpt>
      <trkpt lat="50.39768" lon="4.4133">
        <ele>125.4</ele>
        <time>2022-08-24T13:58:42Z</time>
      </trkpt>
      <trkpt lat="50.39777" lon="4.41348">
        <ele>125</ele>
        <time>2022-08-24T13:58:47Z</time>
      </trkpt>
      <trkpt lat="50.39776" lon="4.41376">
        <ele>125</ele>
        <time>2022-08-24T13:58:52Z</time>
      </trkpt>
      <trkpt lat="50.39775" lon="4.41404">
        <ele>124.8</ele>
        <time>2022-08-24T13:58:57Z</time>
      </trkpt>
      <trkpt lat="50.39773" lon="4.41442">
        <ele>124.4</ele>
        <time>2022-08-24T13:59:04Z</time>
      </trkpt>
      <trkpt lat="50.39768" lon="4.41461">
        <ele>124</ele>
        <time>2022-08-24T13:59:08Z</time>
      </trkpt>
      <trkpt lat="50.39757" lon="4.41464">
        <ele>123.8</ele>
        <time>2022-08-24T13:59:12Z</time>
      </trkpt>
      <trkpt lat="50.39749" lon="4.41464">
        <ele>124</ele>
        <time>2022-08-24T13:59:15Z</time>
      </trkpt>
      <trkpt lat="50.39737" lon="4.41482">
        <ele>124.8</ele>
        <time>2022-08-24T13:59:19Z</time>
      </trkpt>
      <trkpt lat="50.39734" lon="4.41492">
        <ele>125</ele>
        <time>2022-08-24T13:59:22Z</time>
      </trkpt>
      <trkpt lat="50.39731" lon="4.41508">
        <ele>125.4</ele>
        <time>2022-08-24T13:59:26Z</time>
      </trkpt>
      <trkpt lat="50.39727" lon="4.41513">
        <ele>125.4</ele>
        <time>2022-08-24T13:59:28Z</time>
      </trkpt>
      <trkpt lat="50.39705" lon="4.41503">
        <ele>125.4</ele>
        <time>2022-08-24T13:59:34Z</time>
      </trkpt>
      <trkpt lat="50.39674" lon="4.41486">
        <ele>125.2</ele>
        <time>2022-08-24T13:59:43Z</time>
      </trkpt>
      <trkpt lat="50.3967" lon="4.41487">
        <ele>125.2</ele>
        <time>2022-08-24T13:59:44Z</time>
      </trkpt>
      <trkpt lat="50.3966" lon="4.41494">
        <ele>125.2</ele>
        <time>2022-08-24T13:59:47Z</time>
      </trkpt>
      <trkpt lat="50.3965" lon="4.41501">
        <ele>125.4</ele>
        <time>2022-08-24T13:59:50Z</time>
      </trkpt>
      <trkpt lat="50.39645" lon="4.41496">
        <ele>125.4</ele>
        <time>2022-08-24T13:59:53Z</time>
      </trkpt>
      <trkpt lat="50.39626" lon="4.41483">
        <ele>125</ele>
        <time>2022-08-24T14:00:01Z</time>
      </trkpt>
      <trkpt lat="50.39614" lon="4.41474">
        <ele>124.8</ele>
        <time>2022-08-24T14:00:04Z</time>
      </trkpt>
      <trkpt lat="50.39603" lon="4.41462">
        <ele>124.4</ele>
        <time>2022-08-24T14:00:08Z</time>
      </trkpt>
      <trkpt lat="50.39591" lon="4.41464">
        <ele>124.8</ele>
        <time>2022-08-24T14:00:11Z</time>
      </trkpt>
      <trkpt lat="50.39581" lon="4.41471">
        <ele>124.6</ele>
        <time>2022-08-24T14:00:14Z</time>
      </trkpt>
      <trkpt lat="50.39574" lon="4.41492">
        <ele>124.8</ele>
        <time>2022-08-24T14:00:21Z</time>
      </trkpt>
      <trkpt lat="50.39574" lon="4.41493">
        <ele>124.4</ele>
        <time>2022-08-24T14:00:28Z</time>
      </trkpt>
      <trkpt lat="50.3957" lon="4.41504">
        <ele>125.4</ele>
        <time>2022-08-24T14:00:32Z</time>
      </trkpt>
      <trkpt lat="50.39569" lon="4.41525">
        <ele>125.6</ele>
        <time>2022-08-24T14:00:36Z</time>
      </trkpt>
      <trkpt lat="50.39567" lon="4.41543">
        <ele>125.6</ele>
        <time>2022-08-24T14:00:39Z</time>
      </trkpt>
      <trkpt lat="50.39564" lon="4.41555">
        <ele>125.6</ele>
        <time>2022-08-24T14:00:41Z</time>
      </trkpt>
      <trkpt lat="50.39552" lon="4.41585">
        <ele>125.6</ele>
        <time>2022-08-24T14:00:46Z</time>
      </trkpt>
      <trkpt lat="50.39526" lon="4.41613">
        <ele>126.6</ele>
        <time>2022-08-24T14:00:53Z</time>
      </trkpt>
      <trkpt lat="50.39514" lon="4.41631">
        <ele>127.8</ele>
        <time>2022-08-24T14:00:59Z</time>
      </trkpt>
      <trkpt lat="50.39518" lon="4.41652">
        <ele>128.6</ele>
        <time>2022-08-24T14:01:04Z</time>
      </trkpt>
      <trkpt lat="50.39523" lon="4.41662">
        <ele>129</ele>
        <time>2022-08-24T14:01:06Z</time>
      </trkpt>
      <trkpt lat="50.3954" lon="4.41696">
        <ele>129.4</ele>
        <time>2022-08-24T14:01:12Z</time>
      </trkpt>
      <trkpt lat="50.39577" lon="4.41764">
        <ele>131.2</ele>
        <time>2022-08-24T14:01:26Z</time>
      </trkpt>
      <trkpt lat="50.39573" lon="4.41776">
        <ele>131.8</ele>
        <time>2022-08-24T14:01:29Z</time>
      </trkpt>
      <trkpt lat="50.39534" lon="4.41836">
        <ele>133.4</ele>
        <time>2022-08-24T14:01:43Z</time>
      </trkpt>
      <trkpt lat="50.39508" lon="4.41885">
        <ele>134.6</ele>
        <time>2022-08-24T14:01:52Z</time>
      </trkpt>
      <trkpt lat="50.3949" lon="4.41917">
        <ele>135.2</ele>
        <time>2022-08-24T14:01:58Z</time>
      </trkpt>
      <trkpt lat="50.39453" lon="4.41969">
        <ele>136.6</ele>
        <time>2022-08-24T14:02:09Z</time>
      </trkpt>
      <trkpt lat="50.39439" lon="4.41975">
        <ele>137</ele>
        <time>2022-08-24T14:02:13Z</time>
      </trkpt>
      <trkpt lat="50.39435" lon="4.41983">
        <ele>137</ele>
        <time>2022-08-24T14:02:15Z</time>
      </trkpt>
      <trkpt lat="50.39424" lon="4.42011">
        <ele>137.6</ele>
        <time>2022-08-24T14:02:20Z</time>
      </trkpt>
      <trkpt lat="50.39389" lon="4.42034">
        <ele>138.6</ele>
        <time>2022-08-24T14:02:29Z</time>
      </trkpt>
      <trkpt lat="50.39364" lon="4.42069">
        <ele>139.2</ele>
        <time>2022-08-24T14:02:38Z</time>
      </trkpt>
      <trkpt lat="50.3935" lon="4.42102">
        <ele>139.6</ele>
        <time>2022-08-24T14:02:44Z</time>
      </trkpt>
      <trkpt lat="50.39343" lon="4.42111">
        <ele>139.6</ele>
        <time>2022-08-24T14:02:46Z</time>
      </trkpt>
      <trkpt lat="50.39325" lon="4.42152">
        <ele>140.4</ele>
        <time>2022-08-24T14:02:55Z</time>
      </trkpt>
      <trkpt lat="50.39332" lon="4.42164">
        <ele>140.6</ele>
        <time>2022-08-24T14:02:57Z</time>
      </trkpt>
      <trkpt lat="50.3935" lon="4.42193">
        <ele>140.6</ele>
        <time>2022-08-24T14:03:01Z</time>
      </trkpt>
      <trkpt lat="50.39354" lon="4.42201">
        <ele>140.6</ele>
        <time>2022-08-24T14:03:02Z</time>
      </trkpt>
      <trkpt lat="50.39363" lon="4.4224">
        <ele>140.6</ele>
        <time>2022-08-24T14:03:06Z</time>
      </trkpt>
      <trkpt lat="50.39356" lon="4.42265">
        <ele>141</ele>
        <time>2022-08-24T14:03:09Z</time>
      </trkpt>
      <trkpt lat="50.39313" lon="4.42336">
        <ele>141.8</ele>
        <time>2022-08-24T14:03:22Z</time>
      </trkpt>
      <trkpt lat="50.39302" lon="4.42346">
        <ele>142</ele>
        <time>2022-08-24T14:03:25Z</time>
      </trkpt>
      <trkpt lat="50.39296" lon="4.42356">
        <ele>142.2</ele>
        <time>2022-08-24T14:03:27Z</time>
      </trkpt>
      <trkpt lat="50.39283" lon="4.42389">
        <ele>142.6</ele>
        <time>2022-08-24T14:03:33Z</time>
      </trkpt>
      <trkpt lat="50.39264" lon="4.42424">
        <ele>143.2</ele>
        <time>2022-08-24T14:03:42Z</time>
      </trkpt>
      <trkpt lat="50.39265" lon="4.42433">
        <ele>143.4</ele>
        <time>2022-08-24T14:03:44Z</time>
      </trkpt>
      <trkpt lat="50.39288" lon="4.42467">
        <ele>143.6</ele>
        <time>2022-08-24T14:03:51Z</time>
      </trkpt>
      <trkpt lat="50.39322" lon="4.42512">
        <ele>143.8</ele>
        <time>2022-08-24T14:03:58Z</time>
      </trkpt>
      <trkpt lat="50.39368" lon="4.42577">
        <ele>144.2</ele>
        <time>2022-08-24T14:04:07Z</time>
      </trkpt>
      <trkpt lat="50.39447" lon="4.42683">
        <ele>142.6</ele>
        <time>2022-08-24T14:04:22Z</time>
      </trkpt>
      <trkpt lat="50.39484" lon="4.42728">
        <ele>142</ele>
        <time>2022-08-24T14:04:29Z</time>
      </trkpt>
      <trkpt lat="50.39521" lon="4.42777">
        <ele>141.6</ele>
        <time>2022-08-24T14:04:37Z</time>
      </trkpt>
      <trkpt lat="50.39536" lon="4.42785">
        <ele>141.2</ele>
        <time>2022-08-24T14:04:40Z</time>
      </trkpt>
      <trkpt lat="50.39553" lon="4.42772">
        <ele>141</ele>
        <time>2022-08-24T14:04:43Z</time>
      </trkpt>
      <trkpt lat="50.39598" lon="4.42759">
        <ele>140.2</ele>
        <time>2022-08-24T14:04:49Z</time>
      </trkpt>
      <trkpt lat="50.3968" lon="4.42735">
        <ele>138.8</ele>
        <time>2022-08-24T14:04:58Z</time>
      </trkpt>
      <trkpt lat="50.39699" lon="4.4273">
        <ele>138.4</ele>
        <time>2022-08-24T14:05:00Z</time>
      </trkpt>
      <trkpt lat="50.3982" lon="4.42702">
        <ele>136.2</ele>
        <time>2022-08-24T14:05:11Z</time>
      </trkpt>
      <trkpt lat="50.39886" lon="4.42688">
        <ele>134.2</ele>
        <time>2022-08-24T14:05:18Z</time>
      </trkpt>
      <trkpt lat="50.39918" lon="4.42668">
        <ele>132.8</ele>
        <time>2022-08-24T14:05:24Z</time>
      </trkpt>
      <trkpt lat="50.39914" lon="4.42648">
        <ele>131.8</ele>
        <time>2022-08-24T14:05:27Z</time>
      </trkpt>
      <trkpt lat="50.3991" lon="4.42646">
        <ele>131.4</ele>
        <time>2022-08-24T14:05:28Z</time>
      </trkpt>
      <trkpt lat="50.39898" lon="4.42648">
        <ele>129.8</ele>
        <time>2022-08-24T14:05:34Z</time>
      </trkpt>
      <trkpt lat="50.39892" lon="4.42649">
        <ele>121.8</ele>
        <time>2022-08-24T14:06:21Z</time>
      </trkpt>
    </trkseg>
  </trk>
</gpx>